<?xml version="1.0" encoding="UTF-8" standalone="no" ?>
<gpx xmlns="http://www.topografix.com/GPX/1/1" xmlns:xsi="http://www.w3.org/2001/XMLSchema-instance" xsi:schemaLocation="http://www.topografix.com/GPX/1/1 http://www.topografix.com/GPX/1/1/gpx.xsd" version="1.1" creator="VisuGPX - https://www.visugpx.com">
  <metadata>
    <name>sortie 07/08/22</name>
    <desc><![CDATA[Sortie standard sans la moindre innovation. Température supportable surtout en forêt.
Pour une fois mes 3 enregistreurs sont en phase, extraordinaire !]]></desc>
  </metadata>
  <trk>
    <name><![CDATA[2022-08-07 09:13]]></name>
    <desc><![CDATA[<h1>OruxMaps</h1><br /><hr align="center" width="480" style="height: 2px; width: 517px"/><h2>Nom: 2022-08-07 09:13</h2><br /><p>Temps de départ: 08/07/2022 09:15</p><p>Temps d'arrivée: 08/07/2022 11:13</p><p>Distance: 27,5km (01:58)</p><p>Temps déplacement: 01:51</p><p>Vitesse moyenne: 13,9km/h</p><p>Vitesse moyenne: 14,8km/h</p><p>Vitess Max.: 45km/h</p><p>Altitude minimale: 206m</p><p>Altitude maximale: 330m</p><p>Vitesse d'élévation: 467,4m/h</p><p>Vitesse de descente: -809,9m/h</p><p>Gain Altitude: 439m</p><p>Perte Altitude: -419m</p><p>Temps d'élévation: 00:56</p><p>Temps de descente: 00:31</p><hr align="center" width="480" style="height: 2px; width: 517px"/>]]></desc>
    <trkseg>
      <trkpt lat="47.68377" lon="6.04254">
        <ele>206.85</ele>
        <time>2022-08-07T07:15:13Z</time>
      </trkpt>
      <trkpt lat="47.68364" lon="6.04232">
        <ele>211.77</ele>
        <time>2022-08-07T07:15:20Z</time>
      </trkpt>
      <trkpt lat="47.68359" lon="6.04206">
        <ele>214.46</ele>
        <time>2022-08-07T07:15:25Z</time>
      </trkpt>
      <trkpt lat="47.68359" lon="6.04175">
        <ele>213.88</ele>
        <time>2022-08-07T07:15:31Z</time>
      </trkpt>
      <trkpt lat="47.68373" lon="6.04156">
        <ele>210.61</ele>
        <time>2022-08-07T07:15:38Z</time>
      </trkpt>
      <trkpt lat="47.68392" lon="6.04158">
        <ele>211.08</ele>
        <time>2022-08-07T07:15:43Z</time>
      </trkpt>
      <trkpt lat="47.68412" lon="6.0416">
        <ele>210.99</ele>
        <time>2022-08-07T07:15:48Z</time>
      </trkpt>
      <trkpt lat="47.68433" lon="6.0416">
        <ele>212.3</ele>
        <time>2022-08-07T07:15:53Z</time>
      </trkpt>
      <trkpt lat="47.68456" lon="6.04162">
        <ele>213.14</ele>
        <time>2022-08-07T07:15:58Z</time>
      </trkpt>
      <trkpt lat="47.68476" lon="6.04164">
        <ele>213.02</ele>
        <time>2022-08-07T07:16:03Z</time>
      </trkpt>
      <trkpt lat="47.68499" lon="6.04164">
        <ele>212.12</ele>
        <time>2022-08-07T07:16:09Z</time>
      </trkpt>
      <trkpt lat="47.6852" lon="6.04165">
        <ele>213.85</ele>
        <time>2022-08-07T07:16:14Z</time>
      </trkpt>
      <trkpt lat="47.6854" lon="6.04169">
        <ele>216.33</ele>
        <time>2022-08-07T07:16:19Z</time>
      </trkpt>
      <trkpt lat="47.68558" lon="6.04176">
        <ele>216.24</ele>
        <time>2022-08-07T07:16:24Z</time>
      </trkpt>
      <trkpt lat="47.68576" lon="6.04182">
        <ele>218</ele>
        <time>2022-08-07T07:16:29Z</time>
      </trkpt>
      <trkpt lat="47.68595" lon="6.04187">
        <ele>217.68</ele>
        <time>2022-08-07T07:16:34Z</time>
      </trkpt>
      <trkpt lat="47.68613" lon="6.04193">
        <ele>218.64</ele>
        <time>2022-08-07T07:16:39Z</time>
      </trkpt>
      <trkpt lat="47.68633" lon="6.04198">
        <ele>220.35</ele>
        <time>2022-08-07T07:16:44Z</time>
      </trkpt>
      <trkpt lat="47.68653" lon="6.04202">
        <ele>221.84</ele>
        <time>2022-08-07T07:16:49Z</time>
      </trkpt>
      <trkpt lat="47.68673" lon="6.04207">
        <ele>222.92</ele>
        <time>2022-08-07T07:16:54Z</time>
      </trkpt>
      <trkpt lat="47.68691" lon="6.04213">
        <ele>223.31</ele>
        <time>2022-08-07T07:16:59Z</time>
      </trkpt>
      <trkpt lat="47.68711" lon="6.04219">
        <ele>222.97</ele>
        <time>2022-08-07T07:17:04Z</time>
      </trkpt>
      <trkpt lat="47.68731" lon="6.04223">
        <ele>222.26</ele>
        <time>2022-08-07T07:17:09Z</time>
      </trkpt>
      <trkpt lat="47.68751" lon="6.04227">
        <ele>221.55</ele>
        <time>2022-08-07T07:17:14Z</time>
      </trkpt>
      <trkpt lat="47.68769" lon="6.04229">
        <ele>220.24</ele>
        <time>2022-08-07T07:17:19Z</time>
      </trkpt>
      <trkpt lat="47.68788" lon="6.0423">
        <ele>219.78</ele>
        <time>2022-08-07T07:17:24Z</time>
      </trkpt>
      <trkpt lat="47.68806" lon="6.04231">
        <ele>219.36</ele>
        <time>2022-08-07T07:17:29Z</time>
      </trkpt>
      <trkpt lat="47.68824" lon="6.04231">
        <ele>219.11</ele>
        <time>2022-08-07T07:17:36Z</time>
      </trkpt>
      <trkpt lat="47.68843" lon="6.04234">
        <ele>219.85</ele>
        <time>2022-08-07T07:17:43Z</time>
      </trkpt>
      <trkpt lat="47.68864" lon="6.04236">
        <ele>219.5</ele>
        <time>2022-08-07T07:17:49Z</time>
      </trkpt>
      <trkpt lat="47.68883" lon="6.04226">
        <ele>219.11</ele>
        <time>2022-08-07T07:17:55Z</time>
      </trkpt>
      <trkpt lat="47.68901" lon="6.04235">
        <ele>219.61</ele>
        <time>2022-08-07T07:18:02Z</time>
      </trkpt>
      <trkpt lat="47.68921" lon="6.04235">
        <ele>221.11</ele>
        <time>2022-08-07T07:18:14Z</time>
      </trkpt>
      <trkpt lat="47.68933" lon="6.04213">
        <ele>220.35</ele>
        <time>2022-08-07T07:18:20Z</time>
      </trkpt>
      <trkpt lat="47.68943" lon="6.04186">
        <ele>220.35</ele>
        <time>2022-08-07T07:18:25Z</time>
      </trkpt>
      <trkpt lat="47.68953" lon="6.0416">
        <ele>220.8</ele>
        <time>2022-08-07T07:18:30Z</time>
      </trkpt>
      <trkpt lat="47.68963" lon="6.04136">
        <ele>220.91</ele>
        <time>2022-08-07T07:18:35Z</time>
      </trkpt>
      <trkpt lat="47.68975" lon="6.04111">
        <ele>220.15</ele>
        <time>2022-08-07T07:18:41Z</time>
      </trkpt>
      <trkpt lat="47.68963" lon="6.04135">
        <ele>220.1</ele>
        <time>2022-08-07T07:18:59Z</time>
      </trkpt>
      <trkpt lat="47.68953" lon="6.04158">
        <ele>220.58</ele>
        <time>2022-08-07T07:19:03Z</time>
      </trkpt>
      <trkpt lat="47.68941" lon="6.04186">
        <ele>221.06</ele>
        <time>2022-08-07T07:19:08Z</time>
      </trkpt>
      <trkpt lat="47.68928" lon="6.04211">
        <ele>221.15</ele>
        <time>2022-08-07T07:19:13Z</time>
      </trkpt>
      <trkpt lat="47.68918" lon="6.04237">
        <ele>220.8</ele>
        <time>2022-08-07T07:19:18Z</time>
      </trkpt>
      <trkpt lat="47.68906" lon="6.04261">
        <ele>220.64</ele>
        <time>2022-08-07T07:19:23Z</time>
      </trkpt>
      <trkpt lat="47.68895" lon="6.04286">
        <ele>220.95</ele>
        <time>2022-08-07T07:19:28Z</time>
      </trkpt>
      <trkpt lat="47.68887" lon="6.04314">
        <ele>221.64</ele>
        <time>2022-08-07T07:19:33Z</time>
      </trkpt>
      <trkpt lat="47.68876" lon="6.04336">
        <ele>223.31</ele>
        <time>2022-08-07T07:19:41Z</time>
      </trkpt>
      <trkpt lat="47.68871" lon="6.04364">
        <ele>224.31</ele>
        <time>2022-08-07T07:19:53Z</time>
      </trkpt>
      <trkpt lat="47.68858" lon="6.04384">
        <ele>224.26</ele>
        <time>2022-08-07T07:20:12Z</time>
      </trkpt>
      <trkpt lat="47.68852" lon="6.04409">
        <ele>224.76</ele>
        <time>2022-08-07T07:20:24Z</time>
      </trkpt>
      <trkpt lat="47.68842" lon="6.04433">
        <ele>225.42</ele>
        <time>2022-08-07T07:20:39Z</time>
      </trkpt>
      <trkpt lat="47.68838" lon="6.04459">
        <ele>225.37</ele>
        <time>2022-08-07T07:20:47Z</time>
      </trkpt>
      <trkpt lat="47.68833" lon="6.04485">
        <ele>225.79</ele>
        <time>2022-08-07T07:20:55Z</time>
      </trkpt>
      <trkpt lat="47.68828" lon="6.04514">
        <ele>225.81</ele>
        <time>2022-08-07T07:21:04Z</time>
      </trkpt>
      <trkpt lat="47.68827" lon="6.04542">
        <ele>225.91</ele>
        <time>2022-08-07T07:21:12Z</time>
      </trkpt>
      <trkpt lat="47.68826" lon="6.0457">
        <ele>225.08</ele>
        <time>2022-08-07T07:21:19Z</time>
      </trkpt>
      <trkpt lat="47.68823" lon="6.04598">
        <ele>224.47</ele>
        <time>2022-08-07T07:21:28Z</time>
      </trkpt>
      <trkpt lat="47.68821" lon="6.04625">
        <ele>224.52</ele>
        <time>2022-08-07T07:21:36Z</time>
      </trkpt>
      <trkpt lat="47.68819" lon="6.04652">
        <ele>223.84</ele>
        <time>2022-08-07T07:21:45Z</time>
      </trkpt>
      <trkpt lat="47.68825" lon="6.04678">
        <ele>223.89</ele>
        <time>2022-08-07T07:23:50Z</time>
      </trkpt>
      <trkpt lat="47.68825" lon="6.0471">
        <ele>224.89</ele>
        <time>2022-08-07T07:23:55Z</time>
      </trkpt>
      <trkpt lat="47.68825" lon="6.04738">
        <ele>225.15</ele>
        <time>2022-08-07T07:23:59Z</time>
      </trkpt>
      <trkpt lat="47.68824" lon="6.0477">
        <ele>226.16</ele>
        <time>2022-08-07T07:24:04Z</time>
      </trkpt>
      <trkpt lat="47.68821" lon="6.048">
        <ele>226.63</ele>
        <time>2022-08-07T07:24:10Z</time>
      </trkpt>
      <trkpt lat="47.68818" lon="6.04828">
        <ele>228.06</ele>
        <time>2022-08-07T07:24:16Z</time>
      </trkpt>
      <trkpt lat="47.68814" lon="6.04855">
        <ele>228.54</ele>
        <time>2022-08-07T07:24:24Z</time>
      </trkpt>
      <trkpt lat="47.68825" lon="6.04878">
        <ele>230.14</ele>
        <time>2022-08-07T07:24:41Z</time>
      </trkpt>
      <trkpt lat="47.68835" lon="6.04902">
        <ele>231.02</ele>
        <time>2022-08-07T07:24:47Z</time>
      </trkpt>
      <trkpt lat="47.68846" lon="6.04926">
        <ele>232.28</ele>
        <time>2022-08-07T07:24:53Z</time>
      </trkpt>
      <trkpt lat="47.68858" lon="6.0495">
        <ele>234.14</ele>
        <time>2022-08-07T07:24:59Z</time>
      </trkpt>
      <trkpt lat="47.68869" lon="6.04972">
        <ele>234.82</ele>
        <time>2022-08-07T07:25:05Z</time>
      </trkpt>
      <trkpt lat="47.68881" lon="6.04993">
        <ele>235.26</ele>
        <time>2022-08-07T07:25:11Z</time>
      </trkpt>
      <trkpt lat="47.68896" lon="6.05011">
        <ele>235.87</ele>
        <time>2022-08-07T07:25:18Z</time>
      </trkpt>
      <trkpt lat="47.68913" lon="6.05025">
        <ele>236.58</ele>
        <time>2022-08-07T07:25:25Z</time>
      </trkpt>
      <trkpt lat="47.68929" lon="6.05038">
        <ele>236.31</ele>
        <time>2022-08-07T07:25:32Z</time>
      </trkpt>
      <trkpt lat="47.68947" lon="6.05051">
        <ele>237.08</ele>
        <time>2022-08-07T07:25:40Z</time>
      </trkpt>
      <trkpt lat="47.68964" lon="6.05062">
        <ele>238.66</ele>
        <time>2022-08-07T07:25:49Z</time>
      </trkpt>
      <trkpt lat="47.68983" lon="6.05074">
        <ele>239.99</ele>
        <time>2022-08-07T07:26:00Z</time>
      </trkpt>
      <trkpt lat="47.69001" lon="6.05087">
        <ele>242.8</ele>
        <time>2022-08-07T07:26:08Z</time>
      </trkpt>
      <trkpt lat="47.69017" lon="6.05097">
        <ele>245.15</ele>
        <time>2022-08-07T07:26:18Z</time>
      </trkpt>
      <trkpt lat="47.69035" lon="6.05109">
        <ele>247.4</ele>
        <time>2022-08-07T07:26:29Z</time>
      </trkpt>
      <trkpt lat="47.69052" lon="6.05121">
        <ele>248.79</ele>
        <time>2022-08-07T07:26:39Z</time>
      </trkpt>
      <trkpt lat="47.69068" lon="6.05134">
        <ele>249.18</ele>
        <time>2022-08-07T07:26:50Z</time>
      </trkpt>
      <trkpt lat="47.69085" lon="6.05145">
        <ele>250.05</ele>
        <time>2022-08-07T07:27:00Z</time>
      </trkpt>
      <trkpt lat="47.69102" lon="6.05158">
        <ele>250.2</ele>
        <time>2022-08-07T07:27:10Z</time>
      </trkpt>
      <trkpt lat="47.69119" lon="6.05171">
        <ele>251.03</ele>
        <time>2022-08-07T07:27:19Z</time>
      </trkpt>
      <trkpt lat="47.69135" lon="6.05185">
        <ele>252.09</ele>
        <time>2022-08-07T07:27:26Z</time>
      </trkpt>
      <trkpt lat="47.69153" lon="6.052">
        <ele>252.82</ele>
        <time>2022-08-07T07:27:33Z</time>
      </trkpt>
      <trkpt lat="47.69169" lon="6.05216">
        <ele>253.25</ele>
        <time>2022-08-07T07:27:40Z</time>
      </trkpt>
      <trkpt lat="47.69184" lon="6.05234">
        <ele>253.79</ele>
        <time>2022-08-07T07:27:47Z</time>
      </trkpt>
      <trkpt lat="47.69201" lon="6.05251">
        <ele>254.27</ele>
        <time>2022-08-07T07:27:53Z</time>
      </trkpt>
      <trkpt lat="47.69217" lon="6.0527">
        <ele>255.14</ele>
        <time>2022-08-07T07:27:59Z</time>
      </trkpt>
      <trkpt lat="47.69233" lon="6.05288">
        <ele>256.02</ele>
        <time>2022-08-07T07:28:05Z</time>
      </trkpt>
      <trkpt lat="47.69249" lon="6.05307">
        <ele>256.58</ele>
        <time>2022-08-07T07:28:11Z</time>
      </trkpt>
      <trkpt lat="47.69264" lon="6.05322">
        <ele>257.33</ele>
        <time>2022-08-07T07:28:16Z</time>
      </trkpt>
      <trkpt lat="47.6928" lon="6.05336">
        <ele>257.22</ele>
        <time>2022-08-07T07:28:21Z</time>
      </trkpt>
      <trkpt lat="47.69296" lon="6.05349">
        <ele>257.15</ele>
        <time>2022-08-07T07:28:26Z</time>
      </trkpt>
      <trkpt lat="47.69313" lon="6.05362">
        <ele>257.08</ele>
        <time>2022-08-07T07:28:31Z</time>
      </trkpt>
      <trkpt lat="47.6933" lon="6.05375">
        <ele>256.95</ele>
        <time>2022-08-07T07:28:36Z</time>
      </trkpt>
      <trkpt lat="47.69347" lon="6.05389">
        <ele>257.4</ele>
        <time>2022-08-07T07:28:41Z</time>
      </trkpt>
      <trkpt lat="47.69363" lon="6.05402">
        <ele>257.63</ele>
        <time>2022-08-07T07:28:46Z</time>
      </trkpt>
      <trkpt lat="47.69383" lon="6.05416">
        <ele>257.83</ele>
        <time>2022-08-07T07:28:52Z</time>
      </trkpt>
      <trkpt lat="47.69399" lon="6.05428">
        <ele>258.3</ele>
        <time>2022-08-07T07:28:57Z</time>
      </trkpt>
      <trkpt lat="47.69417" lon="6.05443">
        <ele>258.15</ele>
        <time>2022-08-07T07:29:03Z</time>
      </trkpt>
      <trkpt lat="47.69432" lon="6.05457">
        <ele>258.24</ele>
        <time>2022-08-07T07:29:08Z</time>
      </trkpt>
      <trkpt lat="47.69441" lon="6.05483">
        <ele>258.36</ele>
        <time>2022-08-07T07:29:14Z</time>
      </trkpt>
      <trkpt lat="47.69451" lon="6.05506">
        <ele>258.66</ele>
        <time>2022-08-07T07:29:20Z</time>
      </trkpt>
      <trkpt lat="47.69461" lon="6.05532">
        <ele>259.15</ele>
        <time>2022-08-07T07:29:29Z</time>
      </trkpt>
      <trkpt lat="47.69451" lon="6.05504">
        <ele>259.67</ele>
        <time>2022-08-07T07:29:57Z</time>
      </trkpt>
      <trkpt lat="47.69441" lon="6.05481">
        <ele>259.55</ele>
        <time>2022-08-07T07:30:02Z</time>
      </trkpt>
      <trkpt lat="47.69461" lon="6.05483">
        <ele>258.48</ele>
        <time>2022-08-07T07:30:16Z</time>
      </trkpt>
      <trkpt lat="47.69477" lon="6.05499">
        <ele>258.69</ele>
        <time>2022-08-07T07:30:22Z</time>
      </trkpt>
      <trkpt lat="47.69492" lon="6.05517">
        <ele>258.7</ele>
        <time>2022-08-07T07:30:28Z</time>
      </trkpt>
      <trkpt lat="47.69508" lon="6.05537">
        <ele>259.08</ele>
        <time>2022-08-07T07:30:35Z</time>
      </trkpt>
      <trkpt lat="47.69521" lon="6.05556">
        <ele>259.06</ele>
        <time>2022-08-07T07:30:42Z</time>
      </trkpt>
      <trkpt lat="47.69536" lon="6.05576">
        <ele>259.58</ele>
        <time>2022-08-07T07:30:49Z</time>
      </trkpt>
      <trkpt lat="47.6955" lon="6.05599">
        <ele>259.91</ele>
        <time>2022-08-07T07:30:56Z</time>
      </trkpt>
      <trkpt lat="47.69556" lon="6.05626">
        <ele>260.3</ele>
        <time>2022-08-07T07:31:03Z</time>
      </trkpt>
      <trkpt lat="47.69573" lon="6.05643">
        <ele>260.95</ele>
        <time>2022-08-07T07:31:10Z</time>
      </trkpt>
      <trkpt lat="47.69591" lon="6.05638">
        <ele>261.02</ele>
        <time>2022-08-07T07:31:15Z</time>
      </trkpt>
      <trkpt lat="47.69611" lon="6.05643">
        <ele>261.56</ele>
        <time>2022-08-07T07:31:20Z</time>
      </trkpt>
      <trkpt lat="47.6963" lon="6.0565">
        <ele>261.9</ele>
        <time>2022-08-07T07:31:25Z</time>
      </trkpt>
      <trkpt lat="47.69649" lon="6.05657">
        <ele>261.76</ele>
        <time>2022-08-07T07:31:30Z</time>
      </trkpt>
      <trkpt lat="47.69669" lon="6.05666">
        <ele>261.76</ele>
        <time>2022-08-07T07:31:35Z</time>
      </trkpt>
      <trkpt lat="47.69686" lon="6.05674">
        <ele>261.88</ele>
        <time>2022-08-07T07:31:39Z</time>
      </trkpt>
      <trkpt lat="47.69705" lon="6.05682">
        <ele>261.45</ele>
        <time>2022-08-07T07:31:43Z</time>
      </trkpt>
      <trkpt lat="47.69724" lon="6.0569">
        <ele>261.54</ele>
        <time>2022-08-07T07:31:47Z</time>
      </trkpt>
      <trkpt lat="47.69744" lon="6.057">
        <ele>261.88</ele>
        <time>2022-08-07T07:31:51Z</time>
      </trkpt>
      <trkpt lat="47.69767" lon="6.05711">
        <ele>261.95</ele>
        <time>2022-08-07T07:31:55Z</time>
      </trkpt>
      <trkpt lat="47.69786" lon="6.0572">
        <ele>261.88</ele>
        <time>2022-08-07T07:31:58Z</time>
      </trkpt>
      <trkpt lat="47.69804" lon="6.0573">
        <ele>261.63</ele>
        <time>2022-08-07T07:32:01Z</time>
      </trkpt>
      <trkpt lat="47.6982" lon="6.05752">
        <ele>261.42</ele>
        <time>2022-08-07T07:32:05Z</time>
      </trkpt>
      <trkpt lat="47.69827" lon="6.0578">
        <ele>260.71</ele>
        <time>2022-08-07T07:32:11Z</time>
      </trkpt>
      <trkpt lat="47.69819" lon="6.05807">
        <ele>259.98</ele>
        <time>2022-08-07T07:32:18Z</time>
      </trkpt>
      <trkpt lat="47.69812" lon="6.05836">
        <ele>260.39</ele>
        <time>2022-08-07T07:32:27Z</time>
      </trkpt>
      <trkpt lat="47.69801" lon="6.05858">
        <ele>261.15</ele>
        <time>2022-08-07T07:32:34Z</time>
      </trkpt>
      <trkpt lat="47.69791" lon="6.05881">
        <ele>261.73</ele>
        <time>2022-08-07T07:32:41Z</time>
      </trkpt>
      <trkpt lat="47.6978" lon="6.05903">
        <ele>261.87</ele>
        <time>2022-08-07T07:32:48Z</time>
      </trkpt>
      <trkpt lat="47.6977" lon="6.05928">
        <ele>262.37</ele>
        <time>2022-08-07T07:32:56Z</time>
      </trkpt>
      <trkpt lat="47.6976" lon="6.0595">
        <ele>263.45</ele>
        <time>2022-08-07T07:33:04Z</time>
      </trkpt>
      <trkpt lat="47.69748" lon="6.05974">
        <ele>263.89</ele>
        <time>2022-08-07T07:33:13Z</time>
      </trkpt>
      <trkpt lat="47.69737" lon="6.05999">
        <ele>264.62</ele>
        <time>2022-08-07T07:33:22Z</time>
      </trkpt>
      <trkpt lat="47.69727" lon="6.06022">
        <ele>265.75</ele>
        <time>2022-08-07T07:33:30Z</time>
      </trkpt>
      <trkpt lat="47.69718" lon="6.06047">
        <ele>267.45</ele>
        <time>2022-08-07T07:33:40Z</time>
      </trkpt>
      <trkpt lat="47.69712" lon="6.06074">
        <ele>268.85</ele>
        <time>2022-08-07T07:33:50Z</time>
      </trkpt>
      <trkpt lat="47.69709" lon="6.06102">
        <ele>269.46</ele>
        <time>2022-08-07T07:33:59Z</time>
      </trkpt>
      <trkpt lat="47.69707" lon="6.06129">
        <ele>269.84</ele>
        <time>2022-08-07T07:34:08Z</time>
      </trkpt>
      <trkpt lat="47.69704" lon="6.06157">
        <ele>270</ele>
        <time>2022-08-07T07:34:17Z</time>
      </trkpt>
      <trkpt lat="47.69702" lon="6.06186">
        <ele>271.12</ele>
        <time>2022-08-07T07:34:26Z</time>
      </trkpt>
      <trkpt lat="47.697" lon="6.06216">
        <ele>271.6</ele>
        <time>2022-08-07T07:34:35Z</time>
      </trkpt>
      <trkpt lat="47.69698" lon="6.06244">
        <ele>271.87</ele>
        <time>2022-08-07T07:34:44Z</time>
      </trkpt>
      <trkpt lat="47.69696" lon="6.06274">
        <ele>272.73</ele>
        <time>2022-08-07T07:34:53Z</time>
      </trkpt>
      <trkpt lat="47.69694" lon="6.063">
        <ele>273.55</ele>
        <time>2022-08-07T07:35:01Z</time>
      </trkpt>
      <trkpt lat="47.69693" lon="6.0633">
        <ele>273.57</ele>
        <time>2022-08-07T07:35:10Z</time>
      </trkpt>
      <trkpt lat="47.69692" lon="6.06359">
        <ele>273.87</ele>
        <time>2022-08-07T07:35:18Z</time>
      </trkpt>
      <trkpt lat="47.69698" lon="6.06388">
        <ele>274.01</ele>
        <time>2022-08-07T07:35:25Z</time>
      </trkpt>
      <trkpt lat="47.69708" lon="6.06415">
        <ele>273.33</ele>
        <time>2022-08-07T07:35:31Z</time>
      </trkpt>
      <trkpt lat="47.69718" lon="6.0644">
        <ele>273.14</ele>
        <time>2022-08-07T07:35:36Z</time>
      </trkpt>
      <trkpt lat="47.69725" lon="6.0647">
        <ele>272.96</ele>
        <time>2022-08-07T07:35:42Z</time>
      </trkpt>
      <trkpt lat="47.69724" lon="6.06498">
        <ele>273.11</ele>
        <time>2022-08-07T07:35:48Z</time>
      </trkpt>
      <trkpt lat="47.69718" lon="6.06527">
        <ele>273.51</ele>
        <time>2022-08-07T07:35:56Z</time>
      </trkpt>
      <trkpt lat="47.69716" lon="6.06555">
        <ele>274.27</ele>
        <time>2022-08-07T07:36:04Z</time>
      </trkpt>
      <trkpt lat="47.69713" lon="6.06582">
        <ele>275.22</ele>
        <time>2022-08-07T07:36:12Z</time>
      </trkpt>
      <trkpt lat="47.69709" lon="6.0661">
        <ele>275.99</ele>
        <time>2022-08-07T07:36:20Z</time>
      </trkpt>
      <trkpt lat="47.69708" lon="6.06637">
        <ele>276.27</ele>
        <time>2022-08-07T07:36:28Z</time>
      </trkpt>
      <trkpt lat="47.6971" lon="6.06667">
        <ele>277.21</ele>
        <time>2022-08-07T07:36:36Z</time>
      </trkpt>
      <trkpt lat="47.6971" lon="6.06697">
        <ele>278.05</ele>
        <time>2022-08-07T07:36:44Z</time>
      </trkpt>
      <trkpt lat="47.69711" lon="6.06725">
        <ele>278.3</ele>
        <time>2022-08-07T07:36:50Z</time>
      </trkpt>
      <trkpt lat="47.69712" lon="6.06757">
        <ele>277.92</ele>
        <time>2022-08-07T07:36:55Z</time>
      </trkpt>
      <trkpt lat="47.6971" lon="6.06784">
        <ele>277.9</ele>
        <time>2022-08-07T07:36:59Z</time>
      </trkpt>
      <trkpt lat="47.69709" lon="6.06813">
        <ele>278.4</ele>
        <time>2022-08-07T07:37:04Z</time>
      </trkpt>
      <trkpt lat="47.69708" lon="6.06842">
        <ele>279.05</ele>
        <time>2022-08-07T07:37:11Z</time>
      </trkpt>
      <trkpt lat="47.69711" lon="6.0687">
        <ele>279.77</ele>
        <time>2022-08-07T07:37:20Z</time>
      </trkpt>
      <trkpt lat="47.69716" lon="6.06898">
        <ele>279.66</ele>
        <time>2022-08-07T07:37:31Z</time>
      </trkpt>
      <trkpt lat="47.69722" lon="6.06924">
        <ele>279.56</ele>
        <time>2022-08-07T07:37:40Z</time>
      </trkpt>
      <trkpt lat="47.69729" lon="6.06952">
        <ele>279.11</ele>
        <time>2022-08-07T07:37:48Z</time>
      </trkpt>
      <trkpt lat="47.69737" lon="6.06976">
        <ele>279.24</ele>
        <time>2022-08-07T07:37:53Z</time>
      </trkpt>
      <trkpt lat="47.69745" lon="6.07002">
        <ele>279.51</ele>
        <time>2022-08-07T07:37:58Z</time>
      </trkpt>
      <trkpt lat="47.69758" lon="6.0703">
        <ele>279.87</ele>
        <time>2022-08-07T07:38:03Z</time>
      </trkpt>
      <trkpt lat="47.69773" lon="6.07056">
        <ele>280.73</ele>
        <time>2022-08-07T07:38:07Z</time>
      </trkpt>
      <trkpt lat="47.69787" lon="6.07083">
        <ele>280.27</ele>
        <time>2022-08-07T07:38:11Z</time>
      </trkpt>
      <trkpt lat="47.69799" lon="6.07114">
        <ele>279.28</ele>
        <time>2022-08-07T07:38:15Z</time>
      </trkpt>
      <trkpt lat="47.69807" lon="6.07144">
        <ele>278.29</ele>
        <time>2022-08-07T07:38:18Z</time>
      </trkpt>
      <trkpt lat="47.6981" lon="6.07173">
        <ele>277.59</ele>
        <time>2022-08-07T07:38:21Z</time>
      </trkpt>
      <trkpt lat="47.69809" lon="6.07201">
        <ele>276.88</ele>
        <time>2022-08-07T07:38:25Z</time>
      </trkpt>
      <trkpt lat="47.69812" lon="6.07229">
        <ele>276.35</ele>
        <time>2022-08-07T07:38:30Z</time>
      </trkpt>
      <trkpt lat="47.69812" lon="6.07261">
        <ele>275.76</ele>
        <time>2022-08-07T07:38:35Z</time>
      </trkpt>
      <trkpt lat="47.69812" lon="6.07291">
        <ele>275.3</ele>
        <time>2022-08-07T07:38:40Z</time>
      </trkpt>
      <trkpt lat="47.69808" lon="6.07319">
        <ele>274.85</ele>
        <time>2022-08-07T07:38:46Z</time>
      </trkpt>
      <trkpt lat="47.69804" lon="6.07349">
        <ele>275.11</ele>
        <time>2022-08-07T07:38:53Z</time>
      </trkpt>
      <trkpt lat="47.698" lon="6.07377">
        <ele>275.44</ele>
        <time>2022-08-07T07:39:00Z</time>
      </trkpt>
      <trkpt lat="47.69797" lon="6.07406">
        <ele>275.74</ele>
        <time>2022-08-07T07:39:07Z</time>
      </trkpt>
      <trkpt lat="47.69794" lon="6.07433">
        <ele>275.92</ele>
        <time>2022-08-07T07:39:13Z</time>
      </trkpt>
      <trkpt lat="47.69792" lon="6.07463">
        <ele>276.32</ele>
        <time>2022-08-07T07:39:20Z</time>
      </trkpt>
      <trkpt lat="47.69802" lon="6.07491">
        <ele>276.23</ele>
        <time>2022-08-07T07:39:27Z</time>
      </trkpt>
      <trkpt lat="47.69817" lon="6.07507">
        <ele>275.95</ele>
        <time>2022-08-07T07:39:33Z</time>
      </trkpt>
      <trkpt lat="47.69834" lon="6.07523">
        <ele>275.98</ele>
        <time>2022-08-07T07:39:40Z</time>
      </trkpt>
      <trkpt lat="47.6985" lon="6.07539">
        <ele>275.97</ele>
        <time>2022-08-07T07:39:46Z</time>
      </trkpt>
      <trkpt lat="47.69866" lon="6.07553">
        <ele>275.98</ele>
        <time>2022-08-07T07:39:51Z</time>
      </trkpt>
      <trkpt lat="47.69883" lon="6.07568">
        <ele>276.48</ele>
        <time>2022-08-07T07:39:57Z</time>
      </trkpt>
      <trkpt lat="47.69901" lon="6.07581">
        <ele>276.74</ele>
        <time>2022-08-07T07:40:03Z</time>
      </trkpt>
      <trkpt lat="47.69917" lon="6.07594">
        <ele>275.78</ele>
        <time>2022-08-07T07:40:09Z</time>
      </trkpt>
      <trkpt lat="47.69933" lon="6.07611">
        <ele>275.64</ele>
        <time>2022-08-07T07:40:16Z</time>
      </trkpt>
      <trkpt lat="47.69951" lon="6.07623">
        <ele>276.25</ele>
        <time>2022-08-07T07:40:23Z</time>
      </trkpt>
      <trkpt lat="47.69969" lon="6.07641">
        <ele>276.2</ele>
        <time>2022-08-07T07:40:31Z</time>
      </trkpt>
      <trkpt lat="47.6998" lon="6.07664">
        <ele>275.96</ele>
        <time>2022-08-07T07:40:36Z</time>
      </trkpt>
      <trkpt lat="47.69974" lon="6.0769">
        <ele>275.73</ele>
        <time>2022-08-07T07:40:42Z</time>
      </trkpt>
      <trkpt lat="47.69959" lon="6.0771">
        <ele>276.18</ele>
        <time>2022-08-07T07:40:49Z</time>
      </trkpt>
      <trkpt lat="47.69961" lon="6.07739">
        <ele>275.87</ele>
        <time>2022-08-07T07:40:56Z</time>
      </trkpt>
      <trkpt lat="47.69969" lon="6.07766">
        <ele>276.08</ele>
        <time>2022-08-07T07:41:02Z</time>
      </trkpt>
      <trkpt lat="47.69988" lon="6.0778">
        <ele>276.03</ele>
        <time>2022-08-07T07:41:09Z</time>
      </trkpt>
      <trkpt lat="47.70006" lon="6.07788">
        <ele>276.13</ele>
        <time>2022-08-07T07:41:17Z</time>
      </trkpt>
      <trkpt lat="47.70023" lon="6.07801">
        <ele>276.24</ele>
        <time>2022-08-07T07:41:23Z</time>
      </trkpt>
      <trkpt lat="47.70042" lon="6.07813">
        <ele>276.39</ele>
        <time>2022-08-07T07:41:28Z</time>
      </trkpt>
      <trkpt lat="47.70061" lon="6.07829">
        <ele>274.62</ele>
        <time>2022-08-07T07:41:33Z</time>
      </trkpt>
      <trkpt lat="47.70072" lon="6.07855">
        <ele>274.19</ele>
        <time>2022-08-07T07:41:37Z</time>
      </trkpt>
      <trkpt lat="47.70079" lon="6.07883">
        <ele>274.02</ele>
        <time>2022-08-07T07:41:40Z</time>
      </trkpt>
      <trkpt lat="47.70082" lon="6.0791">
        <ele>273.78</ele>
        <time>2022-08-07T07:41:43Z</time>
      </trkpt>
      <trkpt lat="47.70073" lon="6.07938">
        <ele>273.82</ele>
        <time>2022-08-07T07:41:47Z</time>
      </trkpt>
      <trkpt lat="47.70065" lon="6.07963">
        <ele>274.49</ele>
        <time>2022-08-07T07:41:51Z</time>
      </trkpt>
      <trkpt lat="47.70056" lon="6.0799">
        <ele>275.22</ele>
        <time>2022-08-07T07:41:56Z</time>
      </trkpt>
      <trkpt lat="47.70049" lon="6.08017">
        <ele>275.41</ele>
        <time>2022-08-07T07:42:04Z</time>
      </trkpt>
      <trkpt lat="47.70041" lon="6.08044">
        <ele>275.53</ele>
        <time>2022-08-07T07:42:14Z</time>
      </trkpt>
      <trkpt lat="47.70036" lon="6.08071">
        <ele>276.98</ele>
        <time>2022-08-07T07:42:25Z</time>
      </trkpt>
      <trkpt lat="47.70044" lon="6.08097">
        <ele>278.45</ele>
        <time>2022-08-07T07:42:36Z</time>
      </trkpt>
      <trkpt lat="47.70054" lon="6.08122">
        <ele>278.64</ele>
        <time>2022-08-07T07:42:47Z</time>
      </trkpt>
      <trkpt lat="47.70064" lon="6.08146">
        <ele>279.28</ele>
        <time>2022-08-07T07:42:57Z</time>
      </trkpt>
      <trkpt lat="47.70073" lon="6.08169">
        <ele>279.83</ele>
        <time>2022-08-07T07:43:06Z</time>
      </trkpt>
      <trkpt lat="47.70082" lon="6.08193">
        <ele>280.45</ele>
        <time>2022-08-07T07:43:16Z</time>
      </trkpt>
      <trkpt lat="47.70092" lon="6.08217">
        <ele>281.87</ele>
        <time>2022-08-07T07:43:28Z</time>
      </trkpt>
      <trkpt lat="47.70101" lon="6.08241">
        <ele>282.84</ele>
        <time>2022-08-07T07:43:40Z</time>
      </trkpt>
      <trkpt lat="47.70109" lon="6.08267">
        <ele>283.98</ele>
        <time>2022-08-07T07:43:53Z</time>
      </trkpt>
      <trkpt lat="47.70117" lon="6.08292">
        <ele>285.99</ele>
        <time>2022-08-07T07:44:06Z</time>
      </trkpt>
      <trkpt lat="47.70125" lon="6.08317">
        <ele>288.15</ele>
        <time>2022-08-07T07:44:19Z</time>
      </trkpt>
      <trkpt lat="47.7013" lon="6.08344">
        <ele>289.71</ele>
        <time>2022-08-07T07:44:33Z</time>
      </trkpt>
      <trkpt lat="47.70135" lon="6.08372">
        <ele>292.28</ele>
        <time>2022-08-07T07:44:46Z</time>
      </trkpt>
      <trkpt lat="47.70142" lon="6.084">
        <ele>293.99</ele>
        <time>2022-08-07T07:44:59Z</time>
      </trkpt>
      <trkpt lat="47.70154" lon="6.08422">
        <ele>295.58</ele>
        <time>2022-08-07T07:45:12Z</time>
      </trkpt>
      <trkpt lat="47.7017" lon="6.08437">
        <ele>295.99</ele>
        <time>2022-08-07T07:45:23Z</time>
      </trkpt>
      <trkpt lat="47.70187" lon="6.0845">
        <ele>297.12</ele>
        <time>2022-08-07T07:45:35Z</time>
      </trkpt>
      <trkpt lat="47.70205" lon="6.08456">
        <ele>299.68</ele>
        <time>2022-08-07T07:45:50Z</time>
      </trkpt>
      <trkpt lat="47.70222" lon="6.08468">
        <ele>300.32</ele>
        <time>2022-08-07T07:46:01Z</time>
      </trkpt>
      <trkpt lat="47.70237" lon="6.08486">
        <ele>300.48</ele>
        <time>2022-08-07T07:46:10Z</time>
      </trkpt>
      <trkpt lat="47.70253" lon="6.08499">
        <ele>301.71</ele>
        <time>2022-08-07T07:46:18Z</time>
      </trkpt>
      <trkpt lat="47.70269" lon="6.08512">
        <ele>301.91</ele>
        <time>2022-08-07T07:46:26Z</time>
      </trkpt>
      <trkpt lat="47.70286" lon="6.08524">
        <ele>303.08</ele>
        <time>2022-08-07T07:46:34Z</time>
      </trkpt>
      <trkpt lat="47.70302" lon="6.08539">
        <ele>304.25</ele>
        <time>2022-08-07T07:46:41Z</time>
      </trkpt>
      <trkpt lat="47.70318" lon="6.08554">
        <ele>306</ele>
        <time>2022-08-07T07:46:49Z</time>
      </trkpt>
      <trkpt lat="47.70336" lon="6.08565">
        <ele>307.24</ele>
        <time>2022-08-07T07:46:56Z</time>
      </trkpt>
      <trkpt lat="47.70354" lon="6.08575">
        <ele>308.36</ele>
        <time>2022-08-07T07:47:05Z</time>
      </trkpt>
      <trkpt lat="47.70371" lon="6.08588">
        <ele>309.16</ele>
        <time>2022-08-07T07:47:13Z</time>
      </trkpt>
      <trkpt lat="47.70388" lon="6.08603">
        <ele>309.41</ele>
        <time>2022-08-07T07:47:20Z</time>
      </trkpt>
      <trkpt lat="47.70406" lon="6.08616">
        <ele>310.48</ele>
        <time>2022-08-07T07:47:28Z</time>
      </trkpt>
      <trkpt lat="47.70423" lon="6.08636">
        <ele>311.57</ele>
        <time>2022-08-07T07:47:36Z</time>
      </trkpt>
      <trkpt lat="47.70439" lon="6.08648">
        <ele>312.28</ele>
        <time>2022-08-07T07:47:42Z</time>
      </trkpt>
      <trkpt lat="47.70456" lon="6.08662">
        <ele>313.41</ele>
        <time>2022-08-07T07:47:49Z</time>
      </trkpt>
      <trkpt lat="47.70473" lon="6.08674">
        <ele>314.98</ele>
        <time>2022-08-07T07:47:56Z</time>
      </trkpt>
      <trkpt lat="47.7049" lon="6.08685">
        <ele>314.48</ele>
        <time>2022-08-07T07:48:04Z</time>
      </trkpt>
      <trkpt lat="47.70507" lon="6.08698">
        <ele>315.48</ele>
        <time>2022-08-07T07:48:11Z</time>
      </trkpt>
      <trkpt lat="47.70524" lon="6.08713">
        <ele>315.95</ele>
        <time>2022-08-07T07:48:18Z</time>
      </trkpt>
      <trkpt lat="47.70541" lon="6.08727">
        <ele>316.12</ele>
        <time>2022-08-07T07:48:26Z</time>
      </trkpt>
      <trkpt lat="47.70557" lon="6.0874">
        <ele>316.87</ele>
        <time>2022-08-07T07:48:34Z</time>
      </trkpt>
      <trkpt lat="47.70571" lon="6.0876">
        <ele>318.57</ele>
        <time>2022-08-07T07:48:44Z</time>
      </trkpt>
      <trkpt lat="47.70579" lon="6.08787">
        <ele>320.62</ele>
        <time>2022-08-07T07:49:07Z</time>
      </trkpt>
      <trkpt lat="47.70591" lon="6.08813">
        <ele>321.3</ele>
        <time>2022-08-07T07:49:15Z</time>
      </trkpt>
      <trkpt lat="47.70603" lon="6.08835">
        <ele>321.51</ele>
        <time>2022-08-07T07:49:24Z</time>
      </trkpt>
      <trkpt lat="47.70619" lon="6.08851">
        <ele>323.61</ele>
        <time>2022-08-07T07:49:32Z</time>
      </trkpt>
      <trkpt lat="47.70636" lon="6.08864">
        <ele>324.82</ele>
        <time>2022-08-07T07:49:42Z</time>
      </trkpt>
      <trkpt lat="47.7065" lon="6.08883">
        <ele>325.3</ele>
        <time>2022-08-07T07:49:53Z</time>
      </trkpt>
      <trkpt lat="47.70664" lon="6.089">
        <ele>325.36</ele>
        <time>2022-08-07T07:50:00Z</time>
      </trkpt>
      <trkpt lat="47.70682" lon="6.08909">
        <ele>324.38</ele>
        <time>2022-08-07T07:50:08Z</time>
      </trkpt>
      <trkpt lat="47.707" lon="6.0892">
        <ele>324.17</ele>
        <time>2022-08-07T07:50:17Z</time>
      </trkpt>
      <trkpt lat="47.70717" lon="6.08931">
        <ele>324.46</ele>
        <time>2022-08-07T07:50:26Z</time>
      </trkpt>
      <trkpt lat="47.70729" lon="6.08952">
        <ele>325.67</ele>
        <time>2022-08-07T07:50:33Z</time>
      </trkpt>
      <trkpt lat="47.70747" lon="6.08958">
        <ele>325.62</ele>
        <time>2022-08-07T07:50:41Z</time>
      </trkpt>
      <trkpt lat="47.70767" lon="6.08954">
        <ele>325.98</ele>
        <time>2022-08-07T07:50:48Z</time>
      </trkpt>
      <trkpt lat="47.70788" lon="6.08957">
        <ele>326.96</ele>
        <time>2022-08-07T07:50:54Z</time>
      </trkpt>
      <trkpt lat="47.70806" lon="6.08965">
        <ele>328.16</ele>
        <time>2022-08-07T07:51:10Z</time>
      </trkpt>
      <trkpt lat="47.70823" lon="6.08972">
        <ele>328.04</ele>
        <time>2022-08-07T07:51:20Z</time>
      </trkpt>
      <trkpt lat="47.70842" lon="6.08982">
        <ele>328.17</ele>
        <time>2022-08-07T07:51:30Z</time>
      </trkpt>
      <trkpt lat="47.70863" lon="6.08985">
        <ele>328.16</ele>
        <time>2022-08-07T07:51:36Z</time>
      </trkpt>
      <trkpt lat="47.70881" lon="6.08988">
        <ele>328.76</ele>
        <time>2022-08-07T07:51:41Z</time>
      </trkpt>
      <trkpt lat="47.70901" lon="6.08999">
        <ele>328.64</ele>
        <time>2022-08-07T07:51:46Z</time>
      </trkpt>
      <trkpt lat="47.70921" lon="6.09009">
        <ele>328.54</ele>
        <time>2022-08-07T07:51:51Z</time>
      </trkpt>
      <trkpt lat="47.70936" lon="6.09026">
        <ele>328.77</ele>
        <time>2022-08-07T07:51:55Z</time>
      </trkpt>
      <trkpt lat="47.70949" lon="6.09051">
        <ele>328.76</ele>
        <time>2022-08-07T07:51:59Z</time>
      </trkpt>
      <trkpt lat="47.70959" lon="6.09077">
        <ele>328.32</ele>
        <time>2022-08-07T07:52:04Z</time>
      </trkpt>
      <trkpt lat="47.70966" lon="6.09103">
        <ele>328.21</ele>
        <time>2022-08-07T07:52:08Z</time>
      </trkpt>
      <trkpt lat="47.70981" lon="6.09126">
        <ele>327.92</ele>
        <time>2022-08-07T07:52:13Z</time>
      </trkpt>
      <trkpt lat="47.70998" lon="6.0911">
        <ele>327.84</ele>
        <time>2022-08-07T07:52:18Z</time>
      </trkpt>
      <trkpt lat="47.71013" lon="6.09086">
        <ele>328.51</ele>
        <time>2022-08-07T07:52:22Z</time>
      </trkpt>
      <trkpt lat="47.7103" lon="6.09058">
        <ele>328.89</ele>
        <time>2022-08-07T07:52:26Z</time>
      </trkpt>
      <trkpt lat="47.71042" lon="6.09036">
        <ele>329.46</ele>
        <time>2022-08-07T07:52:29Z</time>
      </trkpt>
      <trkpt lat="47.71051" lon="6.09011">
        <ele>330.05</ele>
        <time>2022-08-07T07:52:32Z</time>
      </trkpt>
      <trkpt lat="47.71057" lon="6.08983">
        <ele>330.35</ele>
        <time>2022-08-07T07:52:35Z</time>
      </trkpt>
      <trkpt lat="47.71062" lon="6.08956">
        <ele>330.19</ele>
        <time>2022-08-07T07:52:38Z</time>
      </trkpt>
      <trkpt lat="47.71058" lon="6.08929">
        <ele>330.03</ele>
        <time>2022-08-07T07:52:41Z</time>
      </trkpt>
      <trkpt lat="47.71051" lon="6.08902">
        <ele>329.17</ele>
        <time>2022-08-07T07:52:44Z</time>
      </trkpt>
      <trkpt lat="47.71047" lon="6.08876">
        <ele>326.67</ele>
        <time>2022-08-07T07:52:47Z</time>
      </trkpt>
      <trkpt lat="47.71043" lon="6.08846">
        <ele>322.68</ele>
        <time>2022-08-07T07:52:51Z</time>
      </trkpt>
      <trkpt lat="47.71041" lon="6.0882">
        <ele>319.51</ele>
        <time>2022-08-07T07:52:56Z</time>
      </trkpt>
      <trkpt lat="47.71037" lon="6.08793">
        <ele>316.21</ele>
        <time>2022-08-07T07:53:01Z</time>
      </trkpt>
      <trkpt lat="47.7103" lon="6.08765">
        <ele>313.88</ele>
        <time>2022-08-07T07:53:06Z</time>
      </trkpt>
      <trkpt lat="47.71022" lon="6.08737">
        <ele>312.09</ele>
        <time>2022-08-07T07:53:11Z</time>
      </trkpt>
      <trkpt lat="47.71016" lon="6.0871">
        <ele>310.81</ele>
        <time>2022-08-07T07:53:16Z</time>
      </trkpt>
      <trkpt lat="47.71011" lon="6.0868">
        <ele>308.75</ele>
        <time>2022-08-07T07:53:22Z</time>
      </trkpt>
      <trkpt lat="47.71003" lon="6.08652">
        <ele>308.61</ele>
        <time>2022-08-07T07:53:29Z</time>
      </trkpt>
      <trkpt lat="47.70993" lon="6.08625">
        <ele>309.32</ele>
        <time>2022-08-07T07:53:36Z</time>
      </trkpt>
      <trkpt lat="47.70983" lon="6.08598">
        <ele>309.86</ele>
        <time>2022-08-07T07:53:43Z</time>
      </trkpt>
      <trkpt lat="47.70975" lon="6.08573">
        <ele>310.36</ele>
        <time>2022-08-07T07:53:50Z</time>
      </trkpt>
      <trkpt lat="47.70967" lon="6.08549">
        <ele>310.44</ele>
        <time>2022-08-07T07:53:56Z</time>
      </trkpt>
      <trkpt lat="47.70961" lon="6.08519">
        <ele>310.34</ele>
        <time>2022-08-07T07:54:03Z</time>
      </trkpt>
      <trkpt lat="47.70958" lon="6.08491">
        <ele>310.54</ele>
        <time>2022-08-07T07:54:10Z</time>
      </trkpt>
      <trkpt lat="47.70959" lon="6.08464">
        <ele>310.98</ele>
        <time>2022-08-07T07:54:19Z</time>
      </trkpt>
      <trkpt lat="47.70962" lon="6.08437">
        <ele>312.36</ele>
        <time>2022-08-07T07:54:29Z</time>
      </trkpt>
      <trkpt lat="47.70967" lon="6.08411">
        <ele>313.56</ele>
        <time>2022-08-07T07:54:37Z</time>
      </trkpt>
      <trkpt lat="47.70971" lon="6.08383">
        <ele>314.01</ele>
        <time>2022-08-07T07:54:47Z</time>
      </trkpt>
      <trkpt lat="47.70974" lon="6.08355">
        <ele>316.3</ele>
        <time>2022-08-07T07:54:58Z</time>
      </trkpt>
      <trkpt lat="47.70973" lon="6.08328">
        <ele>317.43</ele>
        <time>2022-08-07T07:55:07Z</time>
      </trkpt>
      <trkpt lat="47.70979" lon="6.083">
        <ele>317.43</ele>
        <time>2022-08-07T07:55:16Z</time>
      </trkpt>
      <trkpt lat="47.70986" lon="6.08275">
        <ele>317.58</ele>
        <time>2022-08-07T07:55:22Z</time>
      </trkpt>
      <trkpt lat="47.70992" lon="6.08249">
        <ele>317.32</ele>
        <time>2022-08-07T07:55:27Z</time>
      </trkpt>
      <trkpt lat="47.71" lon="6.08218">
        <ele>318.12</ele>
        <time>2022-08-07T07:55:32Z</time>
      </trkpt>
      <trkpt lat="47.71008" lon="6.08192">
        <ele>318.48</ele>
        <time>2022-08-07T07:55:36Z</time>
      </trkpt>
      <trkpt lat="47.71017" lon="6.08163">
        <ele>318.6</ele>
        <time>2022-08-07T07:55:40Z</time>
      </trkpt>
      <trkpt lat="47.71028" lon="6.08135">
        <ele>318.92</ele>
        <time>2022-08-07T07:55:44Z</time>
      </trkpt>
      <trkpt lat="47.7104" lon="6.08109">
        <ele>318.9</ele>
        <time>2022-08-07T07:55:48Z</time>
      </trkpt>
      <trkpt lat="47.71053" lon="6.08079">
        <ele>318.42</ele>
        <time>2022-08-07T07:55:52Z</time>
      </trkpt>
      <trkpt lat="47.71064" lon="6.08053">
        <ele>318.15</ele>
        <time>2022-08-07T07:55:55Z</time>
      </trkpt>
      <trkpt lat="47.71074" lon="6.08025">
        <ele>317.89</ele>
        <time>2022-08-07T07:55:58Z</time>
      </trkpt>
      <trkpt lat="47.71083" lon="6.07999">
        <ele>317.29</ele>
        <time>2022-08-07T07:56:01Z</time>
      </trkpt>
      <trkpt lat="47.71091" lon="6.07974">
        <ele>316.62</ele>
        <time>2022-08-07T07:56:04Z</time>
      </trkpt>
      <trkpt lat="47.71098" lon="6.07949">
        <ele>315.62</ele>
        <time>2022-08-07T07:56:07Z</time>
      </trkpt>
      <trkpt lat="47.71104" lon="6.0792">
        <ele>314.66</ele>
        <time>2022-08-07T07:56:10Z</time>
      </trkpt>
      <trkpt lat="47.71109" lon="6.07891">
        <ele>313.9</ele>
        <time>2022-08-07T07:56:13Z</time>
      </trkpt>
      <trkpt lat="47.71115" lon="6.07864">
        <ele>313.87</ele>
        <time>2022-08-07T07:56:16Z</time>
      </trkpt>
      <trkpt lat="47.71126" lon="6.07841">
        <ele>313.69</ele>
        <time>2022-08-07T07:56:19Z</time>
      </trkpt>
      <trkpt lat="47.7114" lon="6.07818">
        <ele>313.37</ele>
        <time>2022-08-07T07:56:22Z</time>
      </trkpt>
      <trkpt lat="47.71152" lon="6.07795">
        <ele>313.14</ele>
        <time>2022-08-07T07:56:25Z</time>
      </trkpt>
      <trkpt lat="47.71163" lon="6.07773">
        <ele>312.4</ele>
        <time>2022-08-07T07:56:28Z</time>
      </trkpt>
      <trkpt lat="47.71175" lon="6.0775">
        <ele>311.58</ele>
        <time>2022-08-07T07:56:31Z</time>
      </trkpt>
      <trkpt lat="47.71188" lon="6.07728">
        <ele>310.98</ele>
        <time>2022-08-07T07:56:34Z</time>
      </trkpt>
      <trkpt lat="47.71207" lon="6.07715">
        <ele>310.3</ele>
        <time>2022-08-07T07:56:37Z</time>
      </trkpt>
      <trkpt lat="47.71228" lon="6.07706">
        <ele>309.32</ele>
        <time>2022-08-07T07:56:40Z</time>
      </trkpt>
      <trkpt lat="47.71251" lon="6.0769">
        <ele>308.13</ele>
        <time>2022-08-07T07:56:43Z</time>
      </trkpt>
      <trkpt lat="47.71275" lon="6.07675">
        <ele>306.74</ele>
        <time>2022-08-07T07:56:46Z</time>
      </trkpt>
      <trkpt lat="47.71301" lon="6.07675">
        <ele>302.66</ele>
        <time>2022-08-07T07:56:49Z</time>
      </trkpt>
      <trkpt lat="47.71326" lon="6.07674">
        <ele>299.68</ele>
        <time>2022-08-07T07:56:52Z</time>
      </trkpt>
      <trkpt lat="47.7135" lon="6.07674">
        <ele>297.34</ele>
        <time>2022-08-07T07:56:55Z</time>
      </trkpt>
      <trkpt lat="47.71374" lon="6.07669">
        <ele>295.26</ele>
        <time>2022-08-07T07:56:58Z</time>
      </trkpt>
      <trkpt lat="47.71395" lon="6.07664">
        <ele>294.74</ele>
        <time>2022-08-07T07:57:01Z</time>
      </trkpt>
      <trkpt lat="47.71414" lon="6.07654">
        <ele>294.17</ele>
        <time>2022-08-07T07:57:04Z</time>
      </trkpt>
      <trkpt lat="47.71429" lon="6.07641">
        <ele>293.27</ele>
        <time>2022-08-07T07:57:07Z</time>
      </trkpt>
      <trkpt lat="47.7145" lon="6.07628">
        <ele>291.01</ele>
        <time>2022-08-07T07:57:11Z</time>
      </trkpt>
      <trkpt lat="47.71463" lon="6.07605">
        <ele>289.55</ele>
        <time>2022-08-07T07:57:15Z</time>
      </trkpt>
      <trkpt lat="47.7146" lon="6.07574">
        <ele>289.39</ele>
        <time>2022-08-07T07:57:19Z</time>
      </trkpt>
      <trkpt lat="47.71455" lon="6.07541">
        <ele>289.84</ele>
        <time>2022-08-07T07:57:23Z</time>
      </trkpt>
      <trkpt lat="47.71451" lon="6.07509">
        <ele>290.14</ele>
        <time>2022-08-07T07:57:27Z</time>
      </trkpt>
      <trkpt lat="47.71447" lon="6.0748">
        <ele>290.36</ele>
        <time>2022-08-07T07:57:31Z</time>
      </trkpt>
      <trkpt lat="47.71442" lon="6.07454">
        <ele>290.78</ele>
        <time>2022-08-07T07:57:35Z</time>
      </trkpt>
      <trkpt lat="47.71435" lon="6.07427">
        <ele>290.21</ele>
        <time>2022-08-07T07:57:39Z</time>
      </trkpt>
      <trkpt lat="47.71429" lon="6.07399">
        <ele>289.82</ele>
        <time>2022-08-07T07:57:43Z</time>
      </trkpt>
      <trkpt lat="47.71424" lon="6.0737">
        <ele>289.49</ele>
        <time>2022-08-07T07:57:47Z</time>
      </trkpt>
      <trkpt lat="47.71422" lon="6.07344">
        <ele>289.26</ele>
        <time>2022-08-07T07:57:54Z</time>
      </trkpt>
      <trkpt lat="47.71436" lon="6.0732">
        <ele>290.08</ele>
        <time>2022-08-07T07:58:00Z</time>
      </trkpt>
      <trkpt lat="47.71436" lon="6.07293">
        <ele>289.89</ele>
        <time>2022-08-07T07:58:03Z</time>
      </trkpt>
      <trkpt lat="47.7143" lon="6.07263">
        <ele>288.96</ele>
        <time>2022-08-07T07:58:06Z</time>
      </trkpt>
      <trkpt lat="47.71422" lon="6.07234">
        <ele>287.5</ele>
        <time>2022-08-07T07:58:09Z</time>
      </trkpt>
      <trkpt lat="47.71418" lon="6.07201">
        <ele>285.71</ele>
        <time>2022-08-07T07:58:12Z</time>
      </trkpt>
      <trkpt lat="47.71419" lon="6.07165">
        <ele>284.42</ele>
        <time>2022-08-07T07:58:15Z</time>
      </trkpt>
      <trkpt lat="47.71423" lon="6.0713">
        <ele>283.1</ele>
        <time>2022-08-07T07:58:18Z</time>
      </trkpt>
      <trkpt lat="47.71426" lon="6.07093">
        <ele>281.49</ele>
        <time>2022-08-07T07:58:21Z</time>
      </trkpt>
      <trkpt lat="47.7143" lon="6.07057">
        <ele>279.27</ele>
        <time>2022-08-07T07:58:24Z</time>
      </trkpt>
      <trkpt lat="47.71435" lon="6.07025">
        <ele>277.68</ele>
        <time>2022-08-07T07:58:27Z</time>
      </trkpt>
      <trkpt lat="47.71439" lon="6.06996">
        <ele>276.87</ele>
        <time>2022-08-07T07:58:30Z</time>
      </trkpt>
      <trkpt lat="47.71441" lon="6.06967">
        <ele>275.69</ele>
        <time>2022-08-07T07:58:33Z</time>
      </trkpt>
      <trkpt lat="47.71443" lon="6.06939">
        <ele>274.56</ele>
        <time>2022-08-07T07:58:36Z</time>
      </trkpt>
      <trkpt lat="47.71444" lon="6.06905">
        <ele>273.5</ele>
        <time>2022-08-07T07:58:40Z</time>
      </trkpt>
      <trkpt lat="47.71445" lon="6.06878">
        <ele>273.95</ele>
        <time>2022-08-07T07:58:44Z</time>
      </trkpt>
      <trkpt lat="47.71446" lon="6.06849">
        <ele>275.38</ele>
        <time>2022-08-07T07:58:49Z</time>
      </trkpt>
      <trkpt lat="47.71448" lon="6.0682">
        <ele>276.64</ele>
        <time>2022-08-07T07:58:55Z</time>
      </trkpt>
      <trkpt lat="47.71449" lon="6.06789">
        <ele>277.33</ele>
        <time>2022-08-07T07:59:02Z</time>
      </trkpt>
      <trkpt lat="47.7145" lon="6.06761">
        <ele>278.24</ele>
        <time>2022-08-07T07:59:09Z</time>
      </trkpt>
      <trkpt lat="47.71451" lon="6.06733">
        <ele>279.39</ele>
        <time>2022-08-07T07:59:15Z</time>
      </trkpt>
      <trkpt lat="47.71453" lon="6.06703">
        <ele>280.67</ele>
        <time>2022-08-07T07:59:22Z</time>
      </trkpt>
      <trkpt lat="47.71454" lon="6.06672">
        <ele>282.12</ele>
        <time>2022-08-07T07:59:30Z</time>
      </trkpt>
      <trkpt lat="47.71458" lon="6.06642">
        <ele>282.85</ele>
        <time>2022-08-07T07:59:36Z</time>
      </trkpt>
      <trkpt lat="47.71461" lon="6.06612">
        <ele>284.12</ele>
        <time>2022-08-07T07:59:42Z</time>
      </trkpt>
      <trkpt lat="47.71458" lon="6.06585">
        <ele>284.53</ele>
        <time>2022-08-07T07:59:46Z</time>
      </trkpt>
      <trkpt lat="47.71454" lon="6.06555">
        <ele>284.93</ele>
        <time>2022-08-07T07:59:53Z</time>
      </trkpt>
      <trkpt lat="47.71451" lon="6.06526">
        <ele>285.17</ele>
        <time>2022-08-07T08:00:00Z</time>
      </trkpt>
      <trkpt lat="47.71447" lon="6.06499">
        <ele>284.25</ele>
        <time>2022-08-07T08:00:06Z</time>
      </trkpt>
      <trkpt lat="47.71441" lon="6.0647">
        <ele>284.27</ele>
        <time>2022-08-07T08:00:13Z</time>
      </trkpt>
      <trkpt lat="47.71443" lon="6.06501">
        <ele>283.48</ele>
        <time>2022-08-07T08:00:26Z</time>
      </trkpt>
      <trkpt lat="47.71448" lon="6.06531">
        <ele>284.66</ele>
        <time>2022-08-07T08:00:33Z</time>
      </trkpt>
      <trkpt lat="47.7145" lon="6.06561">
        <ele>284.12</ele>
        <time>2022-08-07T08:00:39Z</time>
      </trkpt>
      <trkpt lat="47.71461" lon="6.06583">
        <ele>284.11</ele>
        <time>2022-08-07T08:00:45Z</time>
      </trkpt>
      <trkpt lat="47.71472" lon="6.06561">
        <ele>282.45</ele>
        <time>2022-08-07T08:00:52Z</time>
      </trkpt>
      <trkpt lat="47.71477" lon="6.06535">
        <ele>281.81</ele>
        <time>2022-08-07T08:00:56Z</time>
      </trkpt>
      <trkpt lat="47.71482" lon="6.06507">
        <ele>282.37</ele>
        <time>2022-08-07T08:01:00Z</time>
      </trkpt>
      <trkpt lat="47.71487" lon="6.06477">
        <ele>283.67</ele>
        <time>2022-08-07T08:01:04Z</time>
      </trkpt>
      <trkpt lat="47.71494" lon="6.06451">
        <ele>284.29</ele>
        <time>2022-08-07T08:01:07Z</time>
      </trkpt>
      <trkpt lat="47.71503" lon="6.06427">
        <ele>284.27</ele>
        <time>2022-08-07T08:01:10Z</time>
      </trkpt>
      <trkpt lat="47.71509" lon="6.06397">
        <ele>285.19</ele>
        <time>2022-08-07T08:01:13Z</time>
      </trkpt>
      <trkpt lat="47.71514" lon="6.06364">
        <ele>286.14</ele>
        <time>2022-08-07T08:01:16Z</time>
      </trkpt>
      <trkpt lat="47.71522" lon="6.06329">
        <ele>286.55</ele>
        <time>2022-08-07T08:01:19Z</time>
      </trkpt>
      <trkpt lat="47.71531" lon="6.063">
        <ele>286.64</ele>
        <time>2022-08-07T08:01:22Z</time>
      </trkpt>
      <trkpt lat="47.71536" lon="6.06271">
        <ele>286.74</ele>
        <time>2022-08-07T08:01:25Z</time>
      </trkpt>
      <trkpt lat="47.71542" lon="6.06242">
        <ele>287.17</ele>
        <time>2022-08-07T08:01:28Z</time>
      </trkpt>
      <trkpt lat="47.7155" lon="6.06211">
        <ele>287.52</ele>
        <time>2022-08-07T08:01:31Z</time>
      </trkpt>
      <trkpt lat="47.71563" lon="6.06185">
        <ele>287.63</ele>
        <time>2022-08-07T08:01:34Z</time>
      </trkpt>
      <trkpt lat="47.71572" lon="6.06154">
        <ele>288.55</ele>
        <time>2022-08-07T08:01:37Z</time>
      </trkpt>
      <trkpt lat="47.71579" lon="6.06122">
        <ele>289.18</ele>
        <time>2022-08-07T08:01:40Z</time>
      </trkpt>
      <trkpt lat="47.71585" lon="6.06084">
        <ele>289.08</ele>
        <time>2022-08-07T08:01:43Z</time>
      </trkpt>
      <trkpt lat="47.71591" lon="6.06057">
        <ele>288.71</ele>
        <time>2022-08-07T08:01:45Z</time>
      </trkpt>
      <trkpt lat="47.71596" lon="6.06029">
        <ele>288.39</ele>
        <time>2022-08-07T08:01:47Z</time>
      </trkpt>
      <trkpt lat="47.71605" lon="6.05991">
        <ele>287.89</ele>
        <time>2022-08-07T08:01:50Z</time>
      </trkpt>
      <trkpt lat="47.7161" lon="6.05959">
        <ele>286.49</ele>
        <time>2022-08-07T08:01:52Z</time>
      </trkpt>
      <trkpt lat="47.71607" lon="6.05923">
        <ele>282.01</ele>
        <time>2022-08-07T08:01:54Z</time>
      </trkpt>
      <trkpt lat="47.71605" lon="6.05885">
        <ele>274.42</ele>
        <time>2022-08-07T08:01:57Z</time>
      </trkpt>
      <trkpt lat="47.716" lon="6.05847">
        <ele>269.23</ele>
        <time>2022-08-07T08:02:00Z</time>
      </trkpt>
      <trkpt lat="47.71595" lon="6.0581">
        <ele>266.29</ele>
        <time>2022-08-07T08:02:03Z</time>
      </trkpt>
      <trkpt lat="47.71591" lon="6.05776">
        <ele>263.41</ele>
        <time>2022-08-07T08:02:06Z</time>
      </trkpt>
      <trkpt lat="47.71587" lon="6.05748">
        <ele>261.75</ele>
        <time>2022-08-07T08:02:09Z</time>
      </trkpt>
      <trkpt lat="47.71571" lon="6.05732">
        <ele>258.85</ele>
        <time>2022-08-07T08:02:15Z</time>
      </trkpt>
      <trkpt lat="47.71553" lon="6.05731">
        <ele>257.87</ele>
        <time>2022-08-07T08:02:21Z</time>
      </trkpt>
      <trkpt lat="47.71535" lon="6.05729">
        <ele>256.9</ele>
        <time>2022-08-07T08:02:28Z</time>
      </trkpt>
      <trkpt lat="47.71514" lon="6.05727">
        <ele>257.62</ele>
        <time>2022-08-07T08:02:36Z</time>
      </trkpt>
      <trkpt lat="47.71496" lon="6.05719">
        <ele>257.6</ele>
        <time>2022-08-07T08:02:44Z</time>
      </trkpt>
      <trkpt lat="47.7148" lon="6.05705">
        <ele>257.2</ele>
        <time>2022-08-07T08:02:52Z</time>
      </trkpt>
      <trkpt lat="47.71463" lon="6.05693">
        <ele>258.11</ele>
        <time>2022-08-07T08:03:00Z</time>
      </trkpt>
      <trkpt lat="47.71447" lon="6.05677">
        <ele>259.65</ele>
        <time>2022-08-07T08:03:09Z</time>
      </trkpt>
      <trkpt lat="47.71462" lon="6.05693">
        <ele>260.96</ele>
        <time>2022-08-07T08:03:24Z</time>
      </trkpt>
      <trkpt lat="47.71479" lon="6.05708">
        <ele>261.65</ele>
        <time>2022-08-07T08:03:31Z</time>
      </trkpt>
      <trkpt lat="47.71497" lon="6.05722">
        <ele>261.57</ele>
        <time>2022-08-07T08:03:37Z</time>
      </trkpt>
      <trkpt lat="47.71517" lon="6.05728">
        <ele>260.32</ele>
        <time>2022-08-07T08:03:43Z</time>
      </trkpt>
      <trkpt lat="47.71536" lon="6.05732">
        <ele>259.64</ele>
        <time>2022-08-07T08:03:49Z</time>
      </trkpt>
      <trkpt lat="47.71554" lon="6.05734">
        <ele>260.16</ele>
        <time>2022-08-07T08:03:55Z</time>
      </trkpt>
      <trkpt lat="47.71575" lon="6.05735">
        <ele>260.42</ele>
        <time>2022-08-07T08:04:02Z</time>
      </trkpt>
      <trkpt lat="47.71589" lon="6.05713">
        <ele>259.45</ele>
        <time>2022-08-07T08:04:10Z</time>
      </trkpt>
      <trkpt lat="47.71598" lon="6.05688">
        <ele>259.35</ele>
        <time>2022-08-07T08:04:14Z</time>
      </trkpt>
      <trkpt lat="47.71608" lon="6.05658">
        <ele>258.87</ele>
        <time>2022-08-07T08:04:18Z</time>
      </trkpt>
      <trkpt lat="47.71616" lon="6.05632">
        <ele>258.2</ele>
        <time>2022-08-07T08:04:21Z</time>
      </trkpt>
      <trkpt lat="47.71623" lon="6.05603">
        <ele>258.03</ele>
        <time>2022-08-07T08:04:24Z</time>
      </trkpt>
      <trkpt lat="47.7163" lon="6.05574">
        <ele>258.05</ele>
        <time>2022-08-07T08:04:27Z</time>
      </trkpt>
      <trkpt lat="47.71637" lon="6.05543">
        <ele>257.41</ele>
        <time>2022-08-07T08:04:30Z</time>
      </trkpt>
      <trkpt lat="47.71644" lon="6.05511">
        <ele>256.83</ele>
        <time>2022-08-07T08:04:33Z</time>
      </trkpt>
      <trkpt lat="47.7165" lon="6.05478">
        <ele>256.71</ele>
        <time>2022-08-07T08:04:36Z</time>
      </trkpt>
      <trkpt lat="47.71654" lon="6.05442">
        <ele>257.03</ele>
        <time>2022-08-07T08:04:39Z</time>
      </trkpt>
      <trkpt lat="47.71652" lon="6.05405">
        <ele>257.3</ele>
        <time>2022-08-07T08:04:42Z</time>
      </trkpt>
      <trkpt lat="47.71649" lon="6.0537">
        <ele>257.74</ele>
        <time>2022-08-07T08:04:45Z</time>
      </trkpt>
      <trkpt lat="47.71642" lon="6.05335">
        <ele>256.68</ele>
        <time>2022-08-07T08:04:48Z</time>
      </trkpt>
      <trkpt lat="47.71633" lon="6.05304">
        <ele>255.78</ele>
        <time>2022-08-07T08:04:51Z</time>
      </trkpt>
      <trkpt lat="47.71621" lon="6.05272">
        <ele>254.69</ele>
        <time>2022-08-07T08:04:54Z</time>
      </trkpt>
      <trkpt lat="47.71611" lon="6.05238">
        <ele>254.12</ele>
        <time>2022-08-07T08:04:57Z</time>
      </trkpt>
      <trkpt lat="47.71603" lon="6.05206">
        <ele>252.47</ele>
        <time>2022-08-07T08:05:00Z</time>
      </trkpt>
      <trkpt lat="47.71595" lon="6.05175">
        <ele>250.8</ele>
        <time>2022-08-07T08:05:03Z</time>
      </trkpt>
      <trkpt lat="47.71587" lon="6.05144">
        <ele>250.13</ele>
        <time>2022-08-07T08:05:06Z</time>
      </trkpt>
      <trkpt lat="47.71584" lon="6.05111">
        <ele>248.99</ele>
        <time>2022-08-07T08:05:09Z</time>
      </trkpt>
      <trkpt lat="47.71582" lon="6.05078">
        <ele>248.76</ele>
        <time>2022-08-07T08:05:12Z</time>
      </trkpt>
      <trkpt lat="47.71576" lon="6.05046">
        <ele>247.8</ele>
        <time>2022-08-07T08:05:15Z</time>
      </trkpt>
      <trkpt lat="47.71568" lon="6.05016">
        <ele>247.71</ele>
        <time>2022-08-07T08:05:18Z</time>
      </trkpt>
      <trkpt lat="47.71558" lon="6.04988">
        <ele>247.75</ele>
        <time>2022-08-07T08:05:21Z</time>
      </trkpt>
      <trkpt lat="47.71548" lon="6.0496">
        <ele>247.35</ele>
        <time>2022-08-07T08:05:24Z</time>
      </trkpt>
      <trkpt lat="47.71537" lon="6.04934">
        <ele>247.85</ele>
        <time>2022-08-07T08:05:27Z</time>
      </trkpt>
      <trkpt lat="47.71526" lon="6.0491">
        <ele>248.05</ele>
        <time>2022-08-07T08:05:30Z</time>
      </trkpt>
      <trkpt lat="47.71514" lon="6.04887">
        <ele>247.91</ele>
        <time>2022-08-07T08:05:33Z</time>
      </trkpt>
      <trkpt lat="47.71503" lon="6.04865">
        <ele>248.38</ele>
        <time>2022-08-07T08:05:36Z</time>
      </trkpt>
      <trkpt lat="47.71494" lon="6.0484">
        <ele>248.17</ele>
        <time>2022-08-07T08:05:39Z</time>
      </trkpt>
      <trkpt lat="47.71485" lon="6.04816">
        <ele>247.5</ele>
        <time>2022-08-07T08:05:42Z</time>
      </trkpt>
      <trkpt lat="47.71475" lon="6.04792">
        <ele>246.36</ele>
        <time>2022-08-07T08:05:45Z</time>
      </trkpt>
      <trkpt lat="47.71463" lon="6.04768">
        <ele>245.78</ele>
        <time>2022-08-07T08:05:48Z</time>
      </trkpt>
      <trkpt lat="47.71453" lon="6.04744">
        <ele>246.38</ele>
        <time>2022-08-07T08:05:51Z</time>
      </trkpt>
      <trkpt lat="47.71442" lon="6.04718">
        <ele>246.45</ele>
        <time>2022-08-07T08:05:54Z</time>
      </trkpt>
      <trkpt lat="47.7143" lon="6.04694">
        <ele>246.7</ele>
        <time>2022-08-07T08:05:57Z</time>
      </trkpt>
      <trkpt lat="47.71415" lon="6.04672">
        <ele>246.38</ele>
        <time>2022-08-07T08:06:00Z</time>
      </trkpt>
      <trkpt lat="47.71401" lon="6.04648">
        <ele>245.38</ele>
        <time>2022-08-07T08:06:03Z</time>
      </trkpt>
      <trkpt lat="47.71388" lon="6.04622">
        <ele>244.62</ele>
        <time>2022-08-07T08:06:06Z</time>
      </trkpt>
      <trkpt lat="47.71373" lon="6.04595">
        <ele>243.45</ele>
        <time>2022-08-07T08:06:09Z</time>
      </trkpt>
      <trkpt lat="47.71361" lon="6.04566">
        <ele>241.84</ele>
        <time>2022-08-07T08:06:12Z</time>
      </trkpt>
      <trkpt lat="47.71358" lon="6.04534">
        <ele>241.2</ele>
        <time>2022-08-07T08:06:15Z</time>
      </trkpt>
      <trkpt lat="47.71364" lon="6.04505">
        <ele>240.93</ele>
        <time>2022-08-07T08:06:18Z</time>
      </trkpt>
      <trkpt lat="47.71374" lon="6.04477">
        <ele>240.17</ele>
        <time>2022-08-07T08:06:22Z</time>
      </trkpt>
      <trkpt lat="47.71383" lon="6.0445">
        <ele>238.68</ele>
        <time>2022-08-07T08:06:26Z</time>
      </trkpt>
      <trkpt lat="47.71387" lon="6.0442">
        <ele>238.37</ele>
        <time>2022-08-07T08:06:30Z</time>
      </trkpt>
      <trkpt lat="47.71391" lon="6.04389">
        <ele>239.55</ele>
        <time>2022-08-07T08:06:34Z</time>
      </trkpt>
      <trkpt lat="47.71393" lon="6.04359">
        <ele>240.02</ele>
        <time>2022-08-07T08:06:38Z</time>
      </trkpt>
      <trkpt lat="47.71393" lon="6.04332">
        <ele>240.67</ele>
        <time>2022-08-07T08:06:43Z</time>
      </trkpt>
      <trkpt lat="47.71392" lon="6.04301">
        <ele>240.76</ele>
        <time>2022-08-07T08:06:49Z</time>
      </trkpt>
      <trkpt lat="47.71389" lon="6.04272">
        <ele>240.68</ele>
        <time>2022-08-07T08:06:55Z</time>
      </trkpt>
      <trkpt lat="47.71391" lon="6.04242">
        <ele>240.05</ele>
        <time>2022-08-07T08:07:01Z</time>
      </trkpt>
      <trkpt lat="47.7141" lon="6.04237">
        <ele>240.12</ele>
        <time>2022-08-07T08:07:07Z</time>
      </trkpt>
      <trkpt lat="47.7143" lon="6.04233">
        <ele>240.79</ele>
        <time>2022-08-07T08:07:13Z</time>
      </trkpt>
      <trkpt lat="47.71448" lon="6.0423">
        <ele>241.15</ele>
        <time>2022-08-07T08:07:19Z</time>
      </trkpt>
      <trkpt lat="47.71467" lon="6.04228">
        <ele>241.63</ele>
        <time>2022-08-07T08:07:25Z</time>
      </trkpt>
      <trkpt lat="47.71486" lon="6.04226">
        <ele>242.75</ele>
        <time>2022-08-07T08:07:31Z</time>
      </trkpt>
      <trkpt lat="47.71505" lon="6.04221">
        <ele>242.5</ele>
        <time>2022-08-07T08:07:37Z</time>
      </trkpt>
      <trkpt lat="47.71524" lon="6.04217">
        <ele>242.69</ele>
        <time>2022-08-07T08:07:43Z</time>
      </trkpt>
      <trkpt lat="47.71541" lon="6.0421">
        <ele>242.93</ele>
        <time>2022-08-07T08:07:49Z</time>
      </trkpt>
      <trkpt lat="47.7156" lon="6.04204">
        <ele>243.02</ele>
        <time>2022-08-07T08:07:55Z</time>
      </trkpt>
      <trkpt lat="47.71578" lon="6.04198">
        <ele>243.8</ele>
        <time>2022-08-07T08:08:01Z</time>
      </trkpt>
      <trkpt lat="47.71596" lon="6.04194">
        <ele>244.65</ele>
        <time>2022-08-07T08:08:07Z</time>
      </trkpt>
      <trkpt lat="47.71616" lon="6.0419">
        <ele>245.66</ele>
        <time>2022-08-07T08:08:14Z</time>
      </trkpt>
      <trkpt lat="47.71637" lon="6.04185">
        <ele>246.37</ele>
        <time>2022-08-07T08:08:21Z</time>
      </trkpt>
      <trkpt lat="47.71657" lon="6.04178">
        <ele>246.63</ele>
        <time>2022-08-07T08:08:27Z</time>
      </trkpt>
      <trkpt lat="47.71677" lon="6.04173">
        <ele>246.1</ele>
        <time>2022-08-07T08:08:33Z</time>
      </trkpt>
      <trkpt lat="47.71695" lon="6.04168">
        <ele>246.3</ele>
        <time>2022-08-07T08:08:38Z</time>
      </trkpt>
      <trkpt lat="47.71714" lon="6.04163">
        <ele>246.72</ele>
        <time>2022-08-07T08:08:43Z</time>
      </trkpt>
      <trkpt lat="47.71732" lon="6.04162">
        <ele>246.22</ele>
        <time>2022-08-07T08:08:47Z</time>
      </trkpt>
      <trkpt lat="47.71751" lon="6.04163">
        <ele>245.74</ele>
        <time>2022-08-07T08:08:51Z</time>
      </trkpt>
      <trkpt lat="47.7177" lon="6.04168">
        <ele>245.35</ele>
        <time>2022-08-07T08:08:55Z</time>
      </trkpt>
      <trkpt lat="47.71788" lon="6.0418">
        <ele>244.76</ele>
        <time>2022-08-07T08:08:59Z</time>
      </trkpt>
      <trkpt lat="47.71804" lon="6.04195">
        <ele>244.26</ele>
        <time>2022-08-07T08:09:03Z</time>
      </trkpt>
      <trkpt lat="47.71821" lon="6.04216">
        <ele>243.9</ele>
        <time>2022-08-07T08:09:08Z</time>
      </trkpt>
      <trkpt lat="47.71836" lon="6.04241">
        <ele>243.94</ele>
        <time>2022-08-07T08:09:13Z</time>
      </trkpt>
      <trkpt lat="47.71848" lon="6.04262">
        <ele>243.9</ele>
        <time>2022-08-07T08:09:17Z</time>
      </trkpt>
      <trkpt lat="47.71861" lon="6.04285">
        <ele>243.8</ele>
        <time>2022-08-07T08:09:21Z</time>
      </trkpt>
      <trkpt lat="47.71874" lon="6.04308">
        <ele>244.09</ele>
        <time>2022-08-07T08:09:25Z</time>
      </trkpt>
      <trkpt lat="47.71887" lon="6.04331">
        <ele>244.32</ele>
        <time>2022-08-07T08:09:29Z</time>
      </trkpt>
      <trkpt lat="47.719" lon="6.04355">
        <ele>243.91</ele>
        <time>2022-08-07T08:09:33Z</time>
      </trkpt>
      <trkpt lat="47.71913" lon="6.04377">
        <ele>243.62</ele>
        <time>2022-08-07T08:09:37Z</time>
      </trkpt>
      <trkpt lat="47.71926" lon="6.04399">
        <ele>243.42</ele>
        <time>2022-08-07T08:09:41Z</time>
      </trkpt>
      <trkpt lat="47.71938" lon="6.04421">
        <ele>243.42</ele>
        <time>2022-08-07T08:09:45Z</time>
      </trkpt>
      <trkpt lat="47.71951" lon="6.04441">
        <ele>243.36</ele>
        <time>2022-08-07T08:09:49Z</time>
      </trkpt>
      <trkpt lat="47.71965" lon="6.04459">
        <ele>243.43</ele>
        <time>2022-08-07T08:09:53Z</time>
      </trkpt>
      <trkpt lat="47.71981" lon="6.0448">
        <ele>243.67</ele>
        <time>2022-08-07T08:09:58Z</time>
      </trkpt>
      <trkpt lat="47.71997" lon="6.04502">
        <ele>244.04</ele>
        <time>2022-08-07T08:10:03Z</time>
      </trkpt>
      <trkpt lat="47.72012" lon="6.04522">
        <ele>244.19</ele>
        <time>2022-08-07T08:10:08Z</time>
      </trkpt>
      <trkpt lat="47.72025" lon="6.04543">
        <ele>244.46</ele>
        <time>2022-08-07T08:10:13Z</time>
      </trkpt>
      <trkpt lat="47.72036" lon="6.04566">
        <ele>243.65</ele>
        <time>2022-08-07T08:10:18Z</time>
      </trkpt>
      <trkpt lat="47.72045" lon="6.0459">
        <ele>243.56</ele>
        <time>2022-08-07T08:10:23Z</time>
      </trkpt>
      <trkpt lat="47.72054" lon="6.04618">
        <ele>243.84</ele>
        <time>2022-08-07T08:10:29Z</time>
      </trkpt>
      <trkpt lat="47.72057" lon="6.04645">
        <ele>244.29</ele>
        <time>2022-08-07T08:10:35Z</time>
      </trkpt>
      <trkpt lat="47.72065" lon="6.04672">
        <ele>245.6</ele>
        <time>2022-08-07T08:10:41Z</time>
      </trkpt>
      <trkpt lat="47.7207" lon="6.04698">
        <ele>245.58</ele>
        <time>2022-08-07T08:10:47Z</time>
      </trkpt>
      <trkpt lat="47.72078" lon="6.04726">
        <ele>245.06</ele>
        <time>2022-08-07T08:10:53Z</time>
      </trkpt>
      <trkpt lat="47.72086" lon="6.04751">
        <ele>245.76</ele>
        <time>2022-08-07T08:10:59Z</time>
      </trkpt>
      <trkpt lat="47.72097" lon="6.04774">
        <ele>246.65</ele>
        <time>2022-08-07T08:11:05Z</time>
      </trkpt>
      <trkpt lat="47.72111" lon="6.04793">
        <ele>247.01</ele>
        <time>2022-08-07T08:11:11Z</time>
      </trkpt>
      <trkpt lat="47.72127" lon="6.04807">
        <ele>248.12</ele>
        <time>2022-08-07T08:11:17Z</time>
      </trkpt>
      <trkpt lat="47.72145" lon="6.04815">
        <ele>248.91</ele>
        <time>2022-08-07T08:11:22Z</time>
      </trkpt>
      <trkpt lat="47.72164" lon="6.0482">
        <ele>249.03</ele>
        <time>2022-08-07T08:11:27Z</time>
      </trkpt>
      <trkpt lat="47.72184" lon="6.04822">
        <ele>249.61</ele>
        <time>2022-08-07T08:11:32Z</time>
      </trkpt>
      <trkpt lat="47.72206" lon="6.04822">
        <ele>249.65</ele>
        <time>2022-08-07T08:11:37Z</time>
      </trkpt>
      <trkpt lat="47.72225" lon="6.04825">
        <ele>249.6</ele>
        <time>2022-08-07T08:11:41Z</time>
      </trkpt>
      <trkpt lat="47.72246" lon="6.0483">
        <ele>249.11</ele>
        <time>2022-08-07T08:11:45Z</time>
      </trkpt>
      <trkpt lat="47.72268" lon="6.04842">
        <ele>248.3</ele>
        <time>2022-08-07T08:11:49Z</time>
      </trkpt>
      <trkpt lat="47.72284" lon="6.04855">
        <ele>247.56</ele>
        <time>2022-08-07T08:11:52Z</time>
      </trkpt>
      <trkpt lat="47.72298" lon="6.04873">
        <ele>246.85</ele>
        <time>2022-08-07T08:11:55Z</time>
      </trkpt>
      <trkpt lat="47.72312" lon="6.04892">
        <ele>246.53</ele>
        <time>2022-08-07T08:11:58Z</time>
      </trkpt>
      <trkpt lat="47.72326" lon="6.04913">
        <ele>246</ele>
        <time>2022-08-07T08:12:01Z</time>
      </trkpt>
      <trkpt lat="47.72339" lon="6.04932">
        <ele>245.44</ele>
        <time>2022-08-07T08:12:04Z</time>
      </trkpt>
      <trkpt lat="47.72355" lon="6.04956">
        <ele>244.83</ele>
        <time>2022-08-07T08:12:08Z</time>
      </trkpt>
      <trkpt lat="47.72371" lon="6.0498">
        <ele>244.76</ele>
        <time>2022-08-07T08:12:12Z</time>
      </trkpt>
      <trkpt lat="47.72386" lon="6.05002">
        <ele>244.88</ele>
        <time>2022-08-07T08:12:16Z</time>
      </trkpt>
      <trkpt lat="47.724" lon="6.05024">
        <ele>244.71</ele>
        <time>2022-08-07T08:12:20Z</time>
      </trkpt>
      <trkpt lat="47.72414" lon="6.05044">
        <ele>244.79</ele>
        <time>2022-08-07T08:12:24Z</time>
      </trkpt>
      <trkpt lat="47.7243" lon="6.05067">
        <ele>244.76</ele>
        <time>2022-08-07T08:12:29Z</time>
      </trkpt>
      <trkpt lat="47.72445" lon="6.05091">
        <ele>244.6</ele>
        <time>2022-08-07T08:12:34Z</time>
      </trkpt>
      <trkpt lat="47.72461" lon="6.05114">
        <ele>244.8</ele>
        <time>2022-08-07T08:12:39Z</time>
      </trkpt>
      <trkpt lat="47.72475" lon="6.05132">
        <ele>244.7</ele>
        <time>2022-08-07T08:12:43Z</time>
      </trkpt>
      <trkpt lat="47.72492" lon="6.0515">
        <ele>244.72</ele>
        <time>2022-08-07T08:12:47Z</time>
      </trkpt>
      <trkpt lat="47.72512" lon="6.0517">
        <ele>244.59</ele>
        <time>2022-08-07T08:12:51Z</time>
      </trkpt>
      <trkpt lat="47.72528" lon="6.05188">
        <ele>243.92</ele>
        <time>2022-08-07T08:12:54Z</time>
      </trkpt>
      <trkpt lat="47.72542" lon="6.05212">
        <ele>243.32</ele>
        <time>2022-08-07T08:12:57Z</time>
      </trkpt>
      <trkpt lat="47.72554" lon="6.0524">
        <ele>243.37</ele>
        <time>2022-08-07T08:13:00Z</time>
      </trkpt>
      <trkpt lat="47.72564" lon="6.05273">
        <ele>243.9</ele>
        <time>2022-08-07T08:13:03Z</time>
      </trkpt>
      <trkpt lat="47.7257" lon="6.0531">
        <ele>243.81</ele>
        <time>2022-08-07T08:13:06Z</time>
      </trkpt>
      <trkpt lat="47.72563" lon="6.05347">
        <ele>243.66</ele>
        <time>2022-08-07T08:13:09Z</time>
      </trkpt>
      <trkpt lat="47.72546" lon="6.05378">
        <ele>243.61</ele>
        <time>2022-08-07T08:13:12Z</time>
      </trkpt>
      <trkpt lat="47.72532" lon="6.05411">
        <ele>242.92</ele>
        <time>2022-08-07T08:13:15Z</time>
      </trkpt>
      <trkpt lat="47.7253" lon="6.05448">
        <ele>241.96</ele>
        <time>2022-08-07T08:13:18Z</time>
      </trkpt>
      <trkpt lat="47.72542" lon="6.05481">
        <ele>240.99</ele>
        <time>2022-08-07T08:13:21Z</time>
      </trkpt>
      <trkpt lat="47.72559" lon="6.05495">
        <ele>240.41</ele>
        <time>2022-08-07T08:13:23Z</time>
      </trkpt>
      <trkpt lat="47.72578" lon="6.05494">
        <ele>239.79</ele>
        <time>2022-08-07T08:13:25Z</time>
      </trkpt>
      <trkpt lat="47.72595" lon="6.05481">
        <ele>239.29</ele>
        <time>2022-08-07T08:13:27Z</time>
      </trkpt>
      <trkpt lat="47.72607" lon="6.05462">
        <ele>238.88</ele>
        <time>2022-08-07T08:13:29Z</time>
      </trkpt>
      <trkpt lat="47.72619" lon="6.05432">
        <ele>238.24</ele>
        <time>2022-08-07T08:13:32Z</time>
      </trkpt>
      <trkpt lat="47.7263" lon="6.054">
        <ele>237.39</ele>
        <time>2022-08-07T08:13:35Z</time>
      </trkpt>
      <trkpt lat="47.72644" lon="6.05371">
        <ele>236.69</ele>
        <time>2022-08-07T08:13:38Z</time>
      </trkpt>
      <trkpt lat="47.72663" lon="6.05351">
        <ele>236.72</ele>
        <time>2022-08-07T08:13:41Z</time>
      </trkpt>
      <trkpt lat="47.72687" lon="6.05343">
        <ele>236.13</ele>
        <time>2022-08-07T08:13:44Z</time>
      </trkpt>
      <trkpt lat="47.72713" lon="6.0534">
        <ele>234.57</ele>
        <time>2022-08-07T08:13:47Z</time>
      </trkpt>
      <trkpt lat="47.72739" lon="6.05342">
        <ele>233.17</ele>
        <time>2022-08-07T08:13:50Z</time>
      </trkpt>
      <trkpt lat="47.72766" lon="6.05344">
        <ele>233.02</ele>
        <time>2022-08-07T08:13:53Z</time>
      </trkpt>
      <trkpt lat="47.72793" lon="6.05348">
        <ele>232.63</ele>
        <time>2022-08-07T08:13:56Z</time>
      </trkpt>
      <trkpt lat="47.72818" lon="6.05358">
        <ele>231.17</ele>
        <time>2022-08-07T08:13:59Z</time>
      </trkpt>
      <trkpt lat="47.7284" lon="6.05373">
        <ele>229.23</ele>
        <time>2022-08-07T08:14:02Z</time>
      </trkpt>
      <trkpt lat="47.7286" lon="6.05388">
        <ele>227.86</ele>
        <time>2022-08-07T08:14:05Z</time>
      </trkpt>
      <trkpt lat="47.72878" lon="6.05401">
        <ele>225.96</ele>
        <time>2022-08-07T08:14:08Z</time>
      </trkpt>
      <trkpt lat="47.729" lon="6.05415">
        <ele>224.38</ele>
        <time>2022-08-07T08:14:12Z</time>
      </trkpt>
      <trkpt lat="47.72919" lon="6.05428">
        <ele>223.29</ele>
        <time>2022-08-07T08:14:16Z</time>
      </trkpt>
      <trkpt lat="47.72936" lon="6.05441">
        <ele>223.55</ele>
        <time>2022-08-07T08:14:20Z</time>
      </trkpt>
      <trkpt lat="47.72955" lon="6.05455">
        <ele>223.65</ele>
        <time>2022-08-07T08:14:24Z</time>
      </trkpt>
      <trkpt lat="47.72972" lon="6.05469">
        <ele>224.53</ele>
        <time>2022-08-07T08:14:28Z</time>
      </trkpt>
      <trkpt lat="47.72988" lon="6.05485">
        <ele>225.28</ele>
        <time>2022-08-07T08:14:32Z</time>
      </trkpt>
      <trkpt lat="47.73006" lon="6.05498">
        <ele>226.03</ele>
        <time>2022-08-07T08:14:37Z</time>
      </trkpt>
      <trkpt lat="47.73023" lon="6.05487">
        <ele>226.62</ele>
        <time>2022-08-07T08:14:41Z</time>
      </trkpt>
      <trkpt lat="47.73037" lon="6.05468">
        <ele>226.62</ele>
        <time>2022-08-07T08:14:45Z</time>
      </trkpt>
      <trkpt lat="47.7305" lon="6.05445">
        <ele>226.09</ele>
        <time>2022-08-07T08:14:49Z</time>
      </trkpt>
      <trkpt lat="47.73058" lon="6.05418">
        <ele>225.79</ele>
        <time>2022-08-07T08:14:53Z</time>
      </trkpt>
      <trkpt lat="47.73065" lon="6.05389">
        <ele>225.17</ele>
        <time>2022-08-07T08:14:57Z</time>
      </trkpt>
      <trkpt lat="47.73073" lon="6.0536">
        <ele>224.57</ele>
        <time>2022-08-07T08:15:01Z</time>
      </trkpt>
      <trkpt lat="47.7308" lon="6.05331">
        <ele>224.51</ele>
        <time>2022-08-07T08:15:05Z</time>
      </trkpt>
      <trkpt lat="47.73086" lon="6.05303">
        <ele>224.78</ele>
        <time>2022-08-07T08:15:09Z</time>
      </trkpt>
      <trkpt lat="47.73093" lon="6.05273">
        <ele>224.75</ele>
        <time>2022-08-07T08:15:13Z</time>
      </trkpt>
      <trkpt lat="47.73099" lon="6.05243">
        <ele>224.29</ele>
        <time>2022-08-07T08:15:18Z</time>
      </trkpt>
      <trkpt lat="47.73106" lon="6.05213">
        <ele>223.44</ele>
        <time>2022-08-07T08:15:23Z</time>
      </trkpt>
      <trkpt lat="47.73115" lon="6.05189">
        <ele>223.4</ele>
        <time>2022-08-07T08:15:29Z</time>
      </trkpt>
      <trkpt lat="47.73125" lon="6.05164">
        <ele>217.12</ele>
        <time>2022-08-07T08:17:25Z</time>
      </trkpt>
      <trkpt lat="47.73126" lon="6.05135">
        <ele>218.27</ele>
        <time>2022-08-07T08:17:31Z</time>
      </trkpt>
      <trkpt lat="47.73128" lon="6.05108">
        <ele>218.71</ele>
        <time>2022-08-07T08:17:36Z</time>
      </trkpt>
      <trkpt lat="47.73129" lon="6.0508">
        <ele>220.38</ele>
        <time>2022-08-07T08:17:41Z</time>
      </trkpt>
      <trkpt lat="47.73131" lon="6.05047">
        <ele>221.39</ele>
        <time>2022-08-07T08:17:46Z</time>
      </trkpt>
      <trkpt lat="47.73134" lon="6.05015">
        <ele>221.09</ele>
        <time>2022-08-07T08:17:51Z</time>
      </trkpt>
      <trkpt lat="47.73134" lon="6.04983">
        <ele>220.94</ele>
        <time>2022-08-07T08:17:56Z</time>
      </trkpt>
      <trkpt lat="47.73124" lon="6.04955">
        <ele>221.59</ele>
        <time>2022-08-07T08:18:01Z</time>
      </trkpt>
      <trkpt lat="47.73112" lon="6.04932">
        <ele>222.68</ele>
        <time>2022-08-07T08:18:06Z</time>
      </trkpt>
      <trkpt lat="47.73099" lon="6.0491">
        <ele>223.91</ele>
        <time>2022-08-07T08:18:11Z</time>
      </trkpt>
      <trkpt lat="47.73086" lon="6.04888">
        <ele>223.88</ele>
        <time>2022-08-07T08:18:17Z</time>
      </trkpt>
      <trkpt lat="47.73073" lon="6.04867">
        <ele>223.45</ele>
        <time>2022-08-07T08:18:22Z</time>
      </trkpt>
      <trkpt lat="47.73059" lon="6.04845">
        <ele>223.6</ele>
        <time>2022-08-07T08:18:28Z</time>
      </trkpt>
      <trkpt lat="47.7304" lon="6.04837">
        <ele>224.98</ele>
        <time>2022-08-07T08:18:37Z</time>
      </trkpt>
      <trkpt lat="47.73023" lon="6.04825">
        <ele>225.13</ele>
        <time>2022-08-07T08:18:42Z</time>
      </trkpt>
      <trkpt lat="47.73005" lon="6.0482">
        <ele>225.47</ele>
        <time>2022-08-07T08:18:46Z</time>
      </trkpt>
      <trkpt lat="47.72986" lon="6.04805">
        <ele>226.17</ele>
        <time>2022-08-07T08:18:50Z</time>
      </trkpt>
      <trkpt lat="47.72951" lon="6.0475">
        <ele>231</ele>
        <time>2022-08-07T08:19:32Z</time>
      </trkpt>
      <trkpt lat="47.72932" lon="6.04719">
        <ele>232.8</ele>
        <time>2022-08-07T08:20:23Z</time>
      </trkpt>
      <trkpt lat="47.72914" lon="6.04727">
        <ele>230.51</ele>
        <time>2022-08-07T08:20:29Z</time>
      </trkpt>
      <trkpt lat="47.72893" lon="6.04721">
        <ele>230.74</ele>
        <time>2022-08-07T08:20:34Z</time>
      </trkpt>
      <trkpt lat="47.72878" lon="6.04704">
        <ele>230.71</ele>
        <time>2022-08-07T08:20:39Z</time>
      </trkpt>
      <trkpt lat="47.72866" lon="6.04683">
        <ele>229.5</ele>
        <time>2022-08-07T08:20:45Z</time>
      </trkpt>
      <trkpt lat="47.7285" lon="6.047">
        <ele>229.09</ele>
        <time>2022-08-07T08:20:49Z</time>
      </trkpt>
      <trkpt lat="47.72837" lon="6.04718">
        <ele>228.49</ele>
        <time>2022-08-07T08:20:52Z</time>
      </trkpt>
      <trkpt lat="47.72815" lon="6.04729">
        <ele>227.58</ele>
        <time>2022-08-07T08:20:56Z</time>
      </trkpt>
      <trkpt lat="47.72798" lon="6.04716">
        <ele>227.22</ele>
        <time>2022-08-07T08:20:59Z</time>
      </trkpt>
      <trkpt lat="47.72782" lon="6.04704">
        <ele>227.07</ele>
        <time>2022-08-07T08:21:02Z</time>
      </trkpt>
      <trkpt lat="47.72765" lon="6.04685">
        <ele>226.81</ele>
        <time>2022-08-07T08:21:06Z</time>
      </trkpt>
      <trkpt lat="47.72748" lon="6.04665">
        <ele>226.49</ele>
        <time>2022-08-07T08:21:10Z</time>
      </trkpt>
      <trkpt lat="47.72736" lon="6.04644">
        <ele>225.92</ele>
        <time>2022-08-07T08:21:14Z</time>
      </trkpt>
      <trkpt lat="47.72722" lon="6.04621">
        <ele>226.13</ele>
        <time>2022-08-07T08:21:19Z</time>
      </trkpt>
      <trkpt lat="47.72709" lon="6.04601">
        <ele>225.76</ele>
        <time>2022-08-07T08:21:23Z</time>
      </trkpt>
      <trkpt lat="47.72698" lon="6.04578">
        <ele>225.11</ele>
        <time>2022-08-07T08:21:27Z</time>
      </trkpt>
      <trkpt lat="47.72686" lon="6.04557">
        <ele>224.64</ele>
        <time>2022-08-07T08:21:31Z</time>
      </trkpt>
      <trkpt lat="47.72672" lon="6.04535">
        <ele>224.49</ele>
        <time>2022-08-07T08:21:35Z</time>
      </trkpt>
      <trkpt lat="47.72661" lon="6.04508">
        <ele>222.67</ele>
        <time>2022-08-07T08:21:39Z</time>
      </trkpt>
      <trkpt lat="47.72648" lon="6.04485">
        <ele>220.8</ele>
        <time>2022-08-07T08:21:43Z</time>
      </trkpt>
      <trkpt lat="47.72635" lon="6.04462">
        <ele>220.04</ele>
        <time>2022-08-07T08:21:47Z</time>
      </trkpt>
      <trkpt lat="47.72621" lon="6.04441">
        <ele>219.81</ele>
        <time>2022-08-07T08:21:51Z</time>
      </trkpt>
      <trkpt lat="47.72607" lon="6.04418">
        <ele>219.29</ele>
        <time>2022-08-07T08:21:55Z</time>
      </trkpt>
      <trkpt lat="47.72597" lon="6.04396">
        <ele>218.68</ele>
        <time>2022-08-07T08:21:59Z</time>
      </trkpt>
      <trkpt lat="47.72586" lon="6.04369">
        <ele>218.43</ele>
        <time>2022-08-07T08:22:04Z</time>
      </trkpt>
      <trkpt lat="47.72576" lon="6.04346">
        <ele>218.3</ele>
        <time>2022-08-07T08:22:08Z</time>
      </trkpt>
      <trkpt lat="47.72567" lon="6.04321">
        <ele>218.72</ele>
        <time>2022-08-07T08:22:12Z</time>
      </trkpt>
      <trkpt lat="47.72557" lon="6.04292">
        <ele>218.87</ele>
        <time>2022-08-07T08:22:17Z</time>
      </trkpt>
      <trkpt lat="47.72559" lon="6.04264">
        <ele>218.78</ele>
        <time>2022-08-07T08:22:21Z</time>
      </trkpt>
      <trkpt lat="47.72575" lon="6.04245">
        <ele>219.27</ele>
        <time>2022-08-07T08:22:26Z</time>
      </trkpt>
      <trkpt lat="47.72588" lon="6.04226">
        <ele>220.46</ele>
        <time>2022-08-07T08:22:31Z</time>
      </trkpt>
      <trkpt lat="47.72603" lon="6.0421">
        <ele>221.85</ele>
        <time>2022-08-07T08:22:37Z</time>
      </trkpt>
      <trkpt lat="47.72619" lon="6.04197">
        <ele>222.02</ele>
        <time>2022-08-07T08:22:44Z</time>
      </trkpt>
      <trkpt lat="47.72635" lon="6.04182">
        <ele>222.36</ele>
        <time>2022-08-07T08:22:52Z</time>
      </trkpt>
      <trkpt lat="47.72651" lon="6.04167">
        <ele>223.32</ele>
        <time>2022-08-07T08:23:00Z</time>
      </trkpt>
      <trkpt lat="47.72666" lon="6.04149">
        <ele>223.47</ele>
        <time>2022-08-07T08:23:08Z</time>
      </trkpt>
      <trkpt lat="47.72664" lon="6.04122">
        <ele>224.2</ele>
        <time>2022-08-07T08:23:16Z</time>
      </trkpt>
      <trkpt lat="47.72656" lon="6.04094">
        <ele>225.28</ele>
        <time>2022-08-07T08:23:24Z</time>
      </trkpt>
      <trkpt lat="47.7265" lon="6.04068">
        <ele>226.38</ele>
        <time>2022-08-07T08:23:32Z</time>
      </trkpt>
      <trkpt lat="47.72649" lon="6.04039">
        <ele>227.05</ele>
        <time>2022-08-07T08:23:40Z</time>
      </trkpt>
      <trkpt lat="47.72645" lon="6.0401">
        <ele>227.9</ele>
        <time>2022-08-07T08:23:48Z</time>
      </trkpt>
      <trkpt lat="47.72643" lon="6.03981">
        <ele>229.54</ele>
        <time>2022-08-07T08:23:56Z</time>
      </trkpt>
      <trkpt lat="47.72645" lon="6.03954">
        <ele>229.69</ele>
        <time>2022-08-07T08:24:04Z</time>
      </trkpt>
      <trkpt lat="47.72648" lon="6.03925">
        <ele>229.14</ele>
        <time>2022-08-07T08:24:12Z</time>
      </trkpt>
      <trkpt lat="47.72649" lon="6.03895">
        <ele>229.42</ele>
        <time>2022-08-07T08:24:20Z</time>
      </trkpt>
      <trkpt lat="47.72653" lon="6.03867">
        <ele>229.76</ele>
        <time>2022-08-07T08:24:28Z</time>
      </trkpt>
      <trkpt lat="47.72657" lon="6.03837">
        <ele>232.51</ele>
        <time>2022-08-07T08:24:37Z</time>
      </trkpt>
      <trkpt lat="47.72662" lon="6.03809">
        <ele>234.93</ele>
        <time>2022-08-07T08:24:44Z</time>
      </trkpt>
      <trkpt lat="47.72671" lon="6.03786">
        <ele>236.81</ele>
        <time>2022-08-07T08:24:51Z</time>
      </trkpt>
      <trkpt lat="47.72684" lon="6.03762">
        <ele>236.58</ele>
        <time>2022-08-07T08:24:57Z</time>
      </trkpt>
      <trkpt lat="47.72696" lon="6.03742">
        <ele>236.68</ele>
        <time>2022-08-07T08:25:03Z</time>
      </trkpt>
      <trkpt lat="47.72709" lon="6.03721">
        <ele>236.44</ele>
        <time>2022-08-07T08:25:09Z</time>
      </trkpt>
      <trkpt lat="47.72722" lon="6.03699">
        <ele>236.54</ele>
        <time>2022-08-07T08:25:15Z</time>
      </trkpt>
      <trkpt lat="47.72736" lon="6.03677">
        <ele>238.56</ele>
        <time>2022-08-07T08:25:22Z</time>
      </trkpt>
      <trkpt lat="47.72748" lon="6.03656">
        <ele>240.18</ele>
        <time>2022-08-07T08:25:28Z</time>
      </trkpt>
      <trkpt lat="47.72764" lon="6.03635">
        <ele>240.16</ele>
        <time>2022-08-07T08:25:34Z</time>
      </trkpt>
      <trkpt lat="47.72779" lon="6.03618">
        <ele>238.7</ele>
        <time>2022-08-07T08:25:39Z</time>
      </trkpt>
      <trkpt lat="47.72796" lon="6.03602">
        <ele>238.2</ele>
        <time>2022-08-07T08:25:45Z</time>
      </trkpt>
      <trkpt lat="47.72811" lon="6.03586">
        <ele>236.93</ele>
        <time>2022-08-07T08:25:50Z</time>
      </trkpt>
      <trkpt lat="47.72827" lon="6.03568">
        <ele>235.94</ele>
        <time>2022-08-07T08:25:55Z</time>
      </trkpt>
      <trkpt lat="47.72838" lon="6.03539">
        <ele>235.22</ele>
        <time>2022-08-07T08:26:00Z</time>
      </trkpt>
      <trkpt lat="47.72838" lon="6.03506">
        <ele>235.13</ele>
        <time>2022-08-07T08:26:05Z</time>
      </trkpt>
      <trkpt lat="47.72836" lon="6.03478">
        <ele>235.19</ele>
        <time>2022-08-07T08:26:09Z</time>
      </trkpt>
      <trkpt lat="47.72834" lon="6.03451">
        <ele>235.18</ele>
        <time>2022-08-07T08:26:13Z</time>
      </trkpt>
      <trkpt lat="47.7283" lon="6.03423">
        <ele>235.02</ele>
        <time>2022-08-07T08:26:17Z</time>
      </trkpt>
      <trkpt lat="47.72827" lon="6.03395">
        <ele>234.96</ele>
        <time>2022-08-07T08:26:21Z</time>
      </trkpt>
      <trkpt lat="47.72825" lon="6.03367">
        <ele>234.61</ele>
        <time>2022-08-07T08:26:25Z</time>
      </trkpt>
      <trkpt lat="47.72827" lon="6.03339">
        <ele>234.17</ele>
        <time>2022-08-07T08:26:29Z</time>
      </trkpt>
      <trkpt lat="47.72832" lon="6.03312">
        <ele>233.69</ele>
        <time>2022-08-07T08:26:33Z</time>
      </trkpt>
      <trkpt lat="47.72839" lon="6.03281">
        <ele>233.81</ele>
        <time>2022-08-07T08:26:38Z</time>
      </trkpt>
      <trkpt lat="47.72846" lon="6.03252">
        <ele>234.04</ele>
        <time>2022-08-07T08:26:43Z</time>
      </trkpt>
      <trkpt lat="47.72854" lon="6.03224">
        <ele>235.14</ele>
        <time>2022-08-07T08:26:49Z</time>
      </trkpt>
      <trkpt lat="47.72861" lon="6.03197">
        <ele>236.6</ele>
        <time>2022-08-07T08:26:55Z</time>
      </trkpt>
      <trkpt lat="47.72868" lon="6.03172">
        <ele>236.31</ele>
        <time>2022-08-07T08:27:00Z</time>
      </trkpt>
      <trkpt lat="47.72875" lon="6.03144">
        <ele>236.61</ele>
        <time>2022-08-07T08:27:06Z</time>
      </trkpt>
      <trkpt lat="47.72882" lon="6.03118">
        <ele>236.97</ele>
        <time>2022-08-07T08:27:11Z</time>
      </trkpt>
      <trkpt lat="47.72888" lon="6.03092">
        <ele>237.3</ele>
        <time>2022-08-07T08:27:16Z</time>
      </trkpt>
      <trkpt lat="47.72892" lon="6.03066">
        <ele>238.19</ele>
        <time>2022-08-07T08:27:21Z</time>
      </trkpt>
      <trkpt lat="47.72895" lon="6.03037">
        <ele>238.18</ele>
        <time>2022-08-07T08:27:26Z</time>
      </trkpt>
      <trkpt lat="47.72896" lon="6.03009">
        <ele>239.04</ele>
        <time>2022-08-07T08:27:31Z</time>
      </trkpt>
      <trkpt lat="47.72898" lon="6.02978">
        <ele>238.86</ele>
        <time>2022-08-07T08:27:37Z</time>
      </trkpt>
      <trkpt lat="47.72898" lon="6.02949">
        <ele>239.17</ele>
        <time>2022-08-07T08:27:43Z</time>
      </trkpt>
      <trkpt lat="47.729" lon="6.02919">
        <ele>238.93</ele>
        <time>2022-08-07T08:27:51Z</time>
      </trkpt>
      <trkpt lat="47.72892" lon="6.02893">
        <ele>239.51</ele>
        <time>2022-08-07T08:27:59Z</time>
      </trkpt>
      <trkpt lat="47.72881" lon="6.02871">
        <ele>242.56</ele>
        <time>2022-08-07T08:28:08Z</time>
      </trkpt>
      <trkpt lat="47.72869" lon="6.02848">
        <ele>243.16</ele>
        <time>2022-08-07T08:28:19Z</time>
      </trkpt>
      <trkpt lat="47.72862" lon="6.0282">
        <ele>245.25</ele>
        <time>2022-08-07T08:28:30Z</time>
      </trkpt>
      <trkpt lat="47.72863" lon="6.02792">
        <ele>248.45</ele>
        <time>2022-08-07T08:28:44Z</time>
      </trkpt>
      <trkpt lat="47.72854" lon="6.02762">
        <ele>250.89</ele>
        <time>2022-08-07T08:28:59Z</time>
      </trkpt>
      <trkpt lat="47.72841" lon="6.02742">
        <ele>250.4</ele>
        <time>2022-08-07T08:29:09Z</time>
      </trkpt>
      <trkpt lat="47.72828" lon="6.02723">
        <ele>249.68</ele>
        <time>2022-08-07T08:29:19Z</time>
      </trkpt>
      <trkpt lat="47.72814" lon="6.02702">
        <ele>250.39</ele>
        <time>2022-08-07T08:29:30Z</time>
      </trkpt>
      <trkpt lat="47.72801" lon="6.02683">
        <ele>250.76</ele>
        <time>2022-08-07T08:29:38Z</time>
      </trkpt>
      <trkpt lat="47.72787" lon="6.02663">
        <ele>251.22</ele>
        <time>2022-08-07T08:29:45Z</time>
      </trkpt>
      <trkpt lat="47.72774" lon="6.02643">
        <ele>251.66</ele>
        <time>2022-08-07T08:29:52Z</time>
      </trkpt>
      <trkpt lat="47.7276" lon="6.02621">
        <ele>252.98</ele>
        <time>2022-08-07T08:30:00Z</time>
      </trkpt>
      <trkpt lat="47.72746" lon="6.02599">
        <ele>253.82</ele>
        <time>2022-08-07T08:30:07Z</time>
      </trkpt>
      <trkpt lat="47.72732" lon="6.02579">
        <ele>253.98</ele>
        <time>2022-08-07T08:30:13Z</time>
      </trkpt>
      <trkpt lat="47.72717" lon="6.02559">
        <ele>254.71</ele>
        <time>2022-08-07T08:30:20Z</time>
      </trkpt>
      <trkpt lat="47.72704" lon="6.02539">
        <ele>254.97</ele>
        <time>2022-08-07T08:30:27Z</time>
      </trkpt>
      <trkpt lat="47.72689" lon="6.02518">
        <ele>254.67</ele>
        <time>2022-08-07T08:30:33Z</time>
      </trkpt>
      <trkpt lat="47.72677" lon="6.02498">
        <ele>254.68</ele>
        <time>2022-08-07T08:30:38Z</time>
      </trkpt>
      <trkpt lat="47.72661" lon="6.02474">
        <ele>254.13</ele>
        <time>2022-08-07T08:30:43Z</time>
      </trkpt>
      <trkpt lat="47.72643" lon="6.02466">
        <ele>254.29</ele>
        <time>2022-08-07T08:30:48Z</time>
      </trkpt>
      <trkpt lat="47.7263" lon="6.02491">
        <ele>254.99</ele>
        <time>2022-08-07T08:30:53Z</time>
      </trkpt>
      <trkpt lat="47.7262" lon="6.02514">
        <ele>255.18</ele>
        <time>2022-08-07T08:30:57Z</time>
      </trkpt>
      <trkpt lat="47.7261" lon="6.02536">
        <ele>254.9</ele>
        <time>2022-08-07T08:31:01Z</time>
      </trkpt>
      <trkpt lat="47.72598" lon="6.02558">
        <ele>254.9</ele>
        <time>2022-08-07T08:31:05Z</time>
      </trkpt>
      <trkpt lat="47.72586" lon="6.02578">
        <ele>254.76</ele>
        <time>2022-08-07T08:31:09Z</time>
      </trkpt>
      <trkpt lat="47.72575" lon="6.02602">
        <ele>254.58</ele>
        <time>2022-08-07T08:31:13Z</time>
      </trkpt>
      <trkpt lat="47.72562" lon="6.02625">
        <ele>254.15</ele>
        <time>2022-08-07T08:31:17Z</time>
      </trkpt>
      <trkpt lat="47.72549" lon="6.0265">
        <ele>253.75</ele>
        <time>2022-08-07T08:31:21Z</time>
      </trkpt>
      <trkpt lat="47.72536" lon="6.02674">
        <ele>253.42</ele>
        <time>2022-08-07T08:31:25Z</time>
      </trkpt>
      <trkpt lat="47.72524" lon="6.02697">
        <ele>253.41</ele>
        <time>2022-08-07T08:31:29Z</time>
      </trkpt>
      <trkpt lat="47.72512" lon="6.0272">
        <ele>253.75</ele>
        <time>2022-08-07T08:31:34Z</time>
      </trkpt>
      <trkpt lat="47.725" lon="6.02745">
        <ele>253.58</ele>
        <time>2022-08-07T08:31:40Z</time>
      </trkpt>
      <trkpt lat="47.72484" lon="6.02723">
        <ele>252.6</ele>
        <time>2022-08-07T08:31:49Z</time>
      </trkpt>
      <trkpt lat="47.7248" lon="6.02696">
        <ele>252.27</ele>
        <time>2022-08-07T08:31:53Z</time>
      </trkpt>
      <trkpt lat="47.72472" lon="6.02663">
        <ele>251.43</ele>
        <time>2022-08-07T08:31:57Z</time>
      </trkpt>
      <trkpt lat="47.72463" lon="6.02637">
        <ele>250.76</ele>
        <time>2022-08-07T08:32:00Z</time>
      </trkpt>
      <trkpt lat="47.72458" lon="6.02611">
        <ele>249.74</ele>
        <time>2022-08-07T08:32:03Z</time>
      </trkpt>
      <trkpt lat="47.72451" lon="6.02579">
        <ele>249.15</ele>
        <time>2022-08-07T08:32:06Z</time>
      </trkpt>
      <trkpt lat="47.72444" lon="6.02551">
        <ele>249.09</ele>
        <time>2022-08-07T08:32:09Z</time>
      </trkpt>
      <trkpt lat="47.72441" lon="6.0252">
        <ele>248.67</ele>
        <time>2022-08-07T08:32:12Z</time>
      </trkpt>
      <trkpt lat="47.72442" lon="6.02487">
        <ele>248.13</ele>
        <time>2022-08-07T08:32:15Z</time>
      </trkpt>
      <trkpt lat="47.72441" lon="6.02454">
        <ele>247.69</ele>
        <time>2022-08-07T08:32:18Z</time>
      </trkpt>
      <trkpt lat="47.72431" lon="6.02424">
        <ele>247.21</ele>
        <time>2022-08-07T08:32:21Z</time>
      </trkpt>
      <trkpt lat="47.72423" lon="6.024">
        <ele>246.2</ele>
        <time>2022-08-07T08:32:24Z</time>
      </trkpt>
      <trkpt lat="47.72403" lon="6.02393">
        <ele>245.89</ele>
        <time>2022-08-07T08:32:28Z</time>
      </trkpt>
      <trkpt lat="47.72384" lon="6.02395">
        <ele>246.94</ele>
        <time>2022-08-07T08:32:33Z</time>
      </trkpt>
      <trkpt lat="47.72364" lon="6.02391">
        <ele>247.6</ele>
        <time>2022-08-07T08:32:41Z</time>
      </trkpt>
      <trkpt lat="47.72344" lon="6.02388">
        <ele>248.18</ele>
        <time>2022-08-07T08:32:48Z</time>
      </trkpt>
      <trkpt lat="47.72325" lon="6.02382">
        <ele>249.89</ele>
        <time>2022-08-07T08:32:58Z</time>
      </trkpt>
      <trkpt lat="47.72306" lon="6.02378">
        <ele>252.6</ele>
        <time>2022-08-07T08:33:07Z</time>
      </trkpt>
      <trkpt lat="47.72288" lon="6.02371">
        <ele>254.82</ele>
        <time>2022-08-07T08:33:15Z</time>
      </trkpt>
      <trkpt lat="47.72268" lon="6.02361">
        <ele>256.21</ele>
        <time>2022-08-07T08:33:23Z</time>
      </trkpt>
      <trkpt lat="47.7225" lon="6.02348">
        <ele>258.53</ele>
        <time>2022-08-07T08:33:31Z</time>
      </trkpt>
      <trkpt lat="47.72231" lon="6.02338">
        <ele>258.33</ele>
        <time>2022-08-07T08:33:38Z</time>
      </trkpt>
      <trkpt lat="47.72215" lon="6.02321">
        <ele>258.15</ele>
        <time>2022-08-07T08:33:44Z</time>
      </trkpt>
      <trkpt lat="47.72197" lon="6.02307">
        <ele>258.34</ele>
        <time>2022-08-07T08:33:49Z</time>
      </trkpt>
      <trkpt lat="47.7218" lon="6.02296">
        <ele>258.97</ele>
        <time>2022-08-07T08:33:54Z</time>
      </trkpt>
      <trkpt lat="47.72159" lon="6.02291">
        <ele>258.78</ele>
        <time>2022-08-07T08:33:59Z</time>
      </trkpt>
      <trkpt lat="47.7214" lon="6.02289">
        <ele>258.27</ele>
        <time>2022-08-07T08:34:03Z</time>
      </trkpt>
      <trkpt lat="47.72117" lon="6.0229">
        <ele>257.61</ele>
        <time>2022-08-07T08:34:07Z</time>
      </trkpt>
      <trkpt lat="47.72097" lon="6.02292">
        <ele>257.23</ele>
        <time>2022-08-07T08:34:10Z</time>
      </trkpt>
      <trkpt lat="47.72075" lon="6.02293">
        <ele>256.7</ele>
        <time>2022-08-07T08:34:13Z</time>
      </trkpt>
      <trkpt lat="47.72054" lon="6.02299">
        <ele>256.07</ele>
        <time>2022-08-07T08:34:16Z</time>
      </trkpt>
      <trkpt lat="47.72033" lon="6.02304">
        <ele>255.53</ele>
        <time>2022-08-07T08:34:19Z</time>
      </trkpt>
      <trkpt lat="47.72011" lon="6.02307">
        <ele>255.25</ele>
        <time>2022-08-07T08:34:22Z</time>
      </trkpt>
      <trkpt lat="47.71989" lon="6.02301">
        <ele>254.61</ele>
        <time>2022-08-07T08:34:25Z</time>
      </trkpt>
      <trkpt lat="47.71965" lon="6.02287">
        <ele>251.9</ele>
        <time>2022-08-07T08:34:28Z</time>
      </trkpt>
      <trkpt lat="47.71942" lon="6.02265">
        <ele>248.74</ele>
        <time>2022-08-07T08:34:31Z</time>
      </trkpt>
      <trkpt lat="47.71929" lon="6.02247">
        <ele>247.55</ele>
        <time>2022-08-07T08:34:33Z</time>
      </trkpt>
      <trkpt lat="47.71917" lon="6.02225">
        <ele>247.3</ele>
        <time>2022-08-07T08:34:35Z</time>
      </trkpt>
      <trkpt lat="47.71908" lon="6.02201">
        <ele>247.39</ele>
        <time>2022-08-07T08:34:37Z</time>
      </trkpt>
      <trkpt lat="47.71899" lon="6.02177">
        <ele>247.61</ele>
        <time>2022-08-07T08:34:39Z</time>
      </trkpt>
      <trkpt lat="47.71893" lon="6.02151">
        <ele>247.82</ele>
        <time>2022-08-07T08:34:41Z</time>
      </trkpt>
      <trkpt lat="47.7189" lon="6.02123">
        <ele>247.17</ele>
        <time>2022-08-07T08:34:43Z</time>
      </trkpt>
      <trkpt lat="47.71886" lon="6.02087">
        <ele>246.3</ele>
        <time>2022-08-07T08:34:46Z</time>
      </trkpt>
      <trkpt lat="47.71883" lon="6.02056">
        <ele>245.37</ele>
        <time>2022-08-07T08:34:49Z</time>
      </trkpt>
      <trkpt lat="47.71879" lon="6.02028">
        <ele>244.97</ele>
        <time>2022-08-07T08:34:52Z</time>
      </trkpt>
      <trkpt lat="47.71876" lon="6.02001">
        <ele>244.75</ele>
        <time>2022-08-07T08:34:55Z</time>
      </trkpt>
      <trkpt lat="47.71869" lon="6.01969">
        <ele>245.34</ele>
        <time>2022-08-07T08:34:59Z</time>
      </trkpt>
      <trkpt lat="47.71863" lon="6.01936">
        <ele>246</ele>
        <time>2022-08-07T08:35:03Z</time>
      </trkpt>
      <trkpt lat="47.71859" lon="6.01906">
        <ele>247.1</ele>
        <time>2022-08-07T08:35:07Z</time>
      </trkpt>
      <trkpt lat="47.71857" lon="6.01879">
        <ele>247.43</ele>
        <time>2022-08-07T08:35:11Z</time>
      </trkpt>
      <trkpt lat="47.71849" lon="6.01852">
        <ele>249.22</ele>
        <time>2022-08-07T08:35:15Z</time>
      </trkpt>
      <trkpt lat="47.71845" lon="6.01823">
        <ele>250.31</ele>
        <time>2022-08-07T08:35:19Z</time>
      </trkpt>
      <trkpt lat="47.71833" lon="6.01795">
        <ele>249.45</ele>
        <time>2022-08-07T08:35:23Z</time>
      </trkpt>
      <trkpt lat="47.71825" lon="6.01771">
        <ele>249.23</ele>
        <time>2022-08-07T08:35:28Z</time>
      </trkpt>
      <trkpt lat="47.71814" lon="6.01746">
        <ele>251.13</ele>
        <time>2022-08-07T08:35:33Z</time>
      </trkpt>
      <trkpt lat="47.71802" lon="6.01717">
        <ele>252.65</ele>
        <time>2022-08-07T08:35:38Z</time>
      </trkpt>
      <trkpt lat="47.7179" lon="6.01694">
        <ele>253.58</ele>
        <time>2022-08-07T08:35:42Z</time>
      </trkpt>
      <trkpt lat="47.71779" lon="6.01668">
        <ele>255.11</ele>
        <time>2022-08-07T08:35:47Z</time>
      </trkpt>
      <trkpt lat="47.71767" lon="6.01647">
        <ele>255.43</ele>
        <time>2022-08-07T08:35:53Z</time>
      </trkpt>
      <trkpt lat="47.71745" lon="6.01644">
        <ele>254.24</ele>
        <time>2022-08-07T08:36:00Z</time>
      </trkpt>
      <trkpt lat="47.71727" lon="6.01629">
        <ele>254.35</ele>
        <time>2022-08-07T08:36:07Z</time>
      </trkpt>
      <trkpt lat="47.71717" lon="6.01606">
        <ele>254.87</ele>
        <time>2022-08-07T08:36:12Z</time>
      </trkpt>
      <trkpt lat="47.7171" lon="6.01579">
        <ele>255.24</ele>
        <time>2022-08-07T08:36:17Z</time>
      </trkpt>
      <trkpt lat="47.71698" lon="6.01556">
        <ele>255.5</ele>
        <time>2022-08-07T08:36:22Z</time>
      </trkpt>
      <trkpt lat="47.71684" lon="6.01538">
        <ele>255.33</ele>
        <time>2022-08-07T08:36:28Z</time>
      </trkpt>
      <trkpt lat="47.71669" lon="6.01517">
        <ele>255.13</ele>
        <time>2022-08-07T08:36:34Z</time>
      </trkpt>
      <trkpt lat="47.71659" lon="6.01493">
        <ele>257.99</ele>
        <time>2022-08-07T08:36:45Z</time>
      </trkpt>
      <trkpt lat="47.7165" lon="6.01467">
        <ele>260.04</ele>
        <time>2022-08-07T08:36:53Z</time>
      </trkpt>
      <trkpt lat="47.71644" lon="6.0144">
        <ele>259.57</ele>
        <time>2022-08-07T08:36:59Z</time>
      </trkpt>
      <trkpt lat="47.71638" lon="6.01412">
        <ele>261.25</ele>
        <time>2022-08-07T08:37:04Z</time>
      </trkpt>
      <trkpt lat="47.71636" lon="6.01385">
        <ele>263.49</ele>
        <time>2022-08-07T08:37:14Z</time>
      </trkpt>
      <trkpt lat="47.71628" lon="6.01361">
        <ele>265.51</ele>
        <time>2022-08-07T08:37:25Z</time>
      </trkpt>
      <trkpt lat="47.71616" lon="6.01338">
        <ele>265.6</ele>
        <time>2022-08-07T08:37:36Z</time>
      </trkpt>
      <trkpt lat="47.71603" lon="6.01319">
        <ele>264.67</ele>
        <time>2022-08-07T08:37:47Z</time>
      </trkpt>
      <trkpt lat="47.71595" lon="6.01294">
        <ele>267.15</ele>
        <time>2022-08-07T08:37:56Z</time>
      </trkpt>
      <trkpt lat="47.71586" lon="6.01267">
        <ele>270.33</ele>
        <time>2022-08-07T08:38:06Z</time>
      </trkpt>
      <trkpt lat="47.71572" lon="6.01247">
        <ele>271.67</ele>
        <time>2022-08-07T08:38:13Z</time>
      </trkpt>
      <trkpt lat="47.7156" lon="6.01225">
        <ele>273.24</ele>
        <time>2022-08-07T08:38:20Z</time>
      </trkpt>
      <trkpt lat="47.71545" lon="6.01207">
        <ele>274.95</ele>
        <time>2022-08-07T08:38:26Z</time>
      </trkpt>
      <trkpt lat="47.71533" lon="6.01184">
        <ele>276.93</ele>
        <time>2022-08-07T08:38:33Z</time>
      </trkpt>
      <trkpt lat="47.71521" lon="6.01162">
        <ele>277.49</ele>
        <time>2022-08-07T08:38:39Z</time>
      </trkpt>
      <trkpt lat="47.71503" lon="6.01141">
        <ele>276.66</ele>
        <time>2022-08-07T08:38:44Z</time>
      </trkpt>
      <trkpt lat="47.71486" lon="6.01116">
        <ele>276.12</ele>
        <time>2022-08-07T08:38:49Z</time>
      </trkpt>
      <trkpt lat="47.71473" lon="6.01089">
        <ele>274.92</ele>
        <time>2022-08-07T08:38:53Z</time>
      </trkpt>
      <trkpt lat="47.71468" lon="6.01061">
        <ele>274.19</ele>
        <time>2022-08-07T08:38:57Z</time>
      </trkpt>
      <trkpt lat="47.71462" lon="6.0103">
        <ele>273.82</ele>
        <time>2022-08-07T08:39:01Z</time>
      </trkpt>
      <trkpt lat="47.71452" lon="6.01001">
        <ele>272.66</ele>
        <time>2022-08-07T08:39:05Z</time>
      </trkpt>
      <trkpt lat="47.71442" lon="6.0097">
        <ele>271.89</ele>
        <time>2022-08-07T08:39:09Z</time>
      </trkpt>
      <trkpt lat="47.71435" lon="6.00942">
        <ele>270.69</ele>
        <time>2022-08-07T08:39:13Z</time>
      </trkpt>
      <trkpt lat="47.7143" lon="6.00915">
        <ele>270.41</ele>
        <time>2022-08-07T08:39:17Z</time>
      </trkpt>
      <trkpt lat="47.7142" lon="6.00889">
        <ele>267.72</ele>
        <time>2022-08-07T08:39:22Z</time>
      </trkpt>
      <trkpt lat="47.71406" lon="6.00868">
        <ele>265.39</ele>
        <time>2022-08-07T08:39:27Z</time>
      </trkpt>
      <trkpt lat="47.7139" lon="6.00852">
        <ele>267.08</ele>
        <time>2022-08-07T08:39:34Z</time>
      </trkpt>
      <trkpt lat="47.71373" lon="6.00844">
        <ele>268.04</ele>
        <time>2022-08-07T08:39:41Z</time>
      </trkpt>
      <trkpt lat="47.71352" lon="6.00841">
        <ele>267.7</ele>
        <time>2022-08-07T08:39:48Z</time>
      </trkpt>
      <trkpt lat="47.71331" lon="6.00839">
        <ele>268.61</ele>
        <time>2022-08-07T08:39:56Z</time>
      </trkpt>
      <trkpt lat="47.71313" lon="6.00835">
        <ele>268.86</ele>
        <time>2022-08-07T08:40:02Z</time>
      </trkpt>
      <trkpt lat="47.71295" lon="6.00827">
        <ele>267.98</ele>
        <time>2022-08-07T08:40:09Z</time>
      </trkpt>
      <trkpt lat="47.71278" lon="6.00815">
        <ele>266.57</ele>
        <time>2022-08-07T08:40:14Z</time>
      </trkpt>
      <trkpt lat="47.71262" lon="6.00802">
        <ele>265.8</ele>
        <time>2022-08-07T08:40:18Z</time>
      </trkpt>
      <trkpt lat="47.71244" lon="6.00786">
        <ele>264.55</ele>
        <time>2022-08-07T08:40:22Z</time>
      </trkpt>
      <trkpt lat="47.71224" lon="6.0077">
        <ele>263.09</ele>
        <time>2022-08-07T08:40:26Z</time>
      </trkpt>
      <trkpt lat="47.71206" lon="6.00758">
        <ele>262.12</ele>
        <time>2022-08-07T08:40:29Z</time>
      </trkpt>
      <trkpt lat="47.71188" lon="6.00747">
        <ele>261.66</ele>
        <time>2022-08-07T08:40:32Z</time>
      </trkpt>
      <trkpt lat="47.71166" lon="6.00736">
        <ele>261.14</ele>
        <time>2022-08-07T08:40:35Z</time>
      </trkpt>
      <trkpt lat="47.71144" lon="6.00725">
        <ele>260.45</ele>
        <time>2022-08-07T08:40:38Z</time>
      </trkpt>
      <trkpt lat="47.7112" lon="6.00711">
        <ele>259.41</ele>
        <time>2022-08-07T08:40:41Z</time>
      </trkpt>
      <trkpt lat="47.71095" lon="6.007">
        <ele>258</ele>
        <time>2022-08-07T08:40:44Z</time>
      </trkpt>
      <trkpt lat="47.71071" lon="6.00689">
        <ele>256.88</ele>
        <time>2022-08-07T08:40:47Z</time>
      </trkpt>
      <trkpt lat="47.71048" lon="6.00679">
        <ele>256.29</ele>
        <time>2022-08-07T08:40:50Z</time>
      </trkpt>
      <trkpt lat="47.71028" lon="6.00667">
        <ele>255.46</ele>
        <time>2022-08-07T08:40:53Z</time>
      </trkpt>
      <trkpt lat="47.7101" lon="6.00655">
        <ele>254.86</ele>
        <time>2022-08-07T08:40:56Z</time>
      </trkpt>
      <trkpt lat="47.70992" lon="6.00642">
        <ele>254.83</ele>
        <time>2022-08-07T08:40:59Z</time>
      </trkpt>
      <trkpt lat="47.70978" lon="6.00622">
        <ele>256.19</ele>
        <time>2022-08-07T08:41:04Z</time>
      </trkpt>
      <trkpt lat="47.70962" lon="6.00606">
        <ele>257.87</ele>
        <time>2022-08-07T08:41:13Z</time>
      </trkpt>
      <trkpt lat="47.70944" lon="6.00597">
        <ele>258.66</ele>
        <time>2022-08-07T08:41:22Z</time>
      </trkpt>
      <trkpt lat="47.70926" lon="6.00594">
        <ele>259.32</ele>
        <time>2022-08-07T08:41:33Z</time>
      </trkpt>
      <trkpt lat="47.70913" lon="6.00612">
        <ele>259.45</ele>
        <time>2022-08-07T08:42:25Z</time>
      </trkpt>
      <trkpt lat="47.70905" lon="6.00643">
        <ele>258.92</ele>
        <time>2022-08-07T08:42:31Z</time>
      </trkpt>
      <trkpt lat="47.70897" lon="6.00673">
        <ele>258.93</ele>
        <time>2022-08-07T08:42:36Z</time>
      </trkpt>
      <trkpt lat="47.70889" lon="6.00699">
        <ele>258.01</ele>
        <time>2022-08-07T08:42:40Z</time>
      </trkpt>
      <trkpt lat="47.7088" lon="6.00731">
        <ele>256.72</ele>
        <time>2022-08-07T08:42:44Z</time>
      </trkpt>
      <trkpt lat="47.70873" lon="6.00756">
        <ele>256.18</ele>
        <time>2022-08-07T08:42:47Z</time>
      </trkpt>
      <trkpt lat="47.70866" lon="6.00783">
        <ele>255.97</ele>
        <time>2022-08-07T08:42:50Z</time>
      </trkpt>
      <trkpt lat="47.70854" lon="6.00808">
        <ele>255.22</ele>
        <time>2022-08-07T08:42:53Z</time>
      </trkpt>
      <trkpt lat="47.70839" lon="6.00832">
        <ele>254.73</ele>
        <time>2022-08-07T08:42:56Z</time>
      </trkpt>
      <trkpt lat="47.70824" lon="6.00858">
        <ele>254.3</ele>
        <time>2022-08-07T08:42:59Z</time>
      </trkpt>
      <trkpt lat="47.70812" lon="6.00889">
        <ele>253.77</ele>
        <time>2022-08-07T08:43:02Z</time>
      </trkpt>
      <trkpt lat="47.70806" lon="6.0092">
        <ele>253</ele>
        <time>2022-08-07T08:43:05Z</time>
      </trkpt>
      <trkpt lat="47.70807" lon="6.00952">
        <ele>252.85</ele>
        <time>2022-08-07T08:43:08Z</time>
      </trkpt>
      <trkpt lat="47.7081" lon="6.00983">
        <ele>252.64</ele>
        <time>2022-08-07T08:43:11Z</time>
      </trkpt>
      <trkpt lat="47.70814" lon="6.01013">
        <ele>252.17</ele>
        <time>2022-08-07T08:43:14Z</time>
      </trkpt>
      <trkpt lat="47.70821" lon="6.01047">
        <ele>252.38</ele>
        <time>2022-08-07T08:43:17Z</time>
      </trkpt>
      <trkpt lat="47.70824" lon="6.01075">
        <ele>251.78</ele>
        <time>2022-08-07T08:43:20Z</time>
      </trkpt>
      <trkpt lat="47.7083" lon="6.01102">
        <ele>250.18</ele>
        <time>2022-08-07T08:43:24Z</time>
      </trkpt>
      <trkpt lat="47.70834" lon="6.01133">
        <ele>248.25</ele>
        <time>2022-08-07T08:43:29Z</time>
      </trkpt>
      <trkpt lat="47.70838" lon="6.01165">
        <ele>247.99</ele>
        <time>2022-08-07T08:43:33Z</time>
      </trkpt>
      <trkpt lat="47.70841" lon="6.01197">
        <ele>248.49</ele>
        <time>2022-08-07T08:43:37Z</time>
      </trkpt>
      <trkpt lat="47.70843" lon="6.01229">
        <ele>249.64</ele>
        <time>2022-08-07T08:43:41Z</time>
      </trkpt>
      <trkpt lat="47.70847" lon="6.01259">
        <ele>249.66</ele>
        <time>2022-08-07T08:43:44Z</time>
      </trkpt>
      <trkpt lat="47.7085" lon="6.01293">
        <ele>249.93</ele>
        <time>2022-08-07T08:43:48Z</time>
      </trkpt>
      <trkpt lat="47.70848" lon="6.01321">
        <ele>249.47</ele>
        <time>2022-08-07T08:43:51Z</time>
      </trkpt>
      <trkpt lat="47.70844" lon="6.01352">
        <ele>249.14</ele>
        <time>2022-08-07T08:43:54Z</time>
      </trkpt>
      <trkpt lat="47.70838" lon="6.01384">
        <ele>248.81</ele>
        <time>2022-08-07T08:43:57Z</time>
      </trkpt>
      <trkpt lat="47.70829" lon="6.01416">
        <ele>248.75</ele>
        <time>2022-08-07T08:44:00Z</time>
      </trkpt>
      <trkpt lat="47.70817" lon="6.01441">
        <ele>248.98</ele>
        <time>2022-08-07T08:44:03Z</time>
      </trkpt>
      <trkpt lat="47.70803" lon="6.01465">
        <ele>248.14</ele>
        <time>2022-08-07T08:44:06Z</time>
      </trkpt>
      <trkpt lat="47.70786" lon="6.01482">
        <ele>248.01</ele>
        <time>2022-08-07T08:44:09Z</time>
      </trkpt>
      <trkpt lat="47.70773" lon="6.01502">
        <ele>247.62</ele>
        <time>2022-08-07T08:44:12Z</time>
      </trkpt>
      <trkpt lat="47.70759" lon="6.01523">
        <ele>247.25</ele>
        <time>2022-08-07T08:44:15Z</time>
      </trkpt>
      <trkpt lat="47.70748" lon="6.01545">
        <ele>246.9</ele>
        <time>2022-08-07T08:44:18Z</time>
      </trkpt>
      <trkpt lat="47.70739" lon="6.01569">
        <ele>247.23</ele>
        <time>2022-08-07T08:44:21Z</time>
      </trkpt>
      <trkpt lat="47.70732" lon="6.01594">
        <ele>247.86</ele>
        <time>2022-08-07T08:44:24Z</time>
      </trkpt>
      <trkpt lat="47.70732" lon="6.01626">
        <ele>248.8</ele>
        <time>2022-08-07T08:44:28Z</time>
      </trkpt>
      <trkpt lat="47.70731" lon="6.01654">
        <ele>250.73</ele>
        <time>2022-08-07T08:44:32Z</time>
      </trkpt>
      <trkpt lat="47.70726" lon="6.01681">
        <ele>251.76</ele>
        <time>2022-08-07T08:44:36Z</time>
      </trkpt>
      <trkpt lat="47.70722" lon="6.01708">
        <ele>251.51</ele>
        <time>2022-08-07T08:44:39Z</time>
      </trkpt>
      <trkpt lat="47.70715" lon="6.01738">
        <ele>252.01</ele>
        <time>2022-08-07T08:44:43Z</time>
      </trkpt>
      <trkpt lat="47.70707" lon="6.01768">
        <ele>251.69</ele>
        <time>2022-08-07T08:44:47Z</time>
      </trkpt>
      <trkpt lat="47.70698" lon="6.01798">
        <ele>248.3</ele>
        <time>2022-08-07T08:44:51Z</time>
      </trkpt>
      <trkpt lat="47.7069" lon="6.0183">
        <ele>244.17</ele>
        <time>2022-08-07T08:44:55Z</time>
      </trkpt>
      <trkpt lat="47.70686" lon="6.01857">
        <ele>241.94</ele>
        <time>2022-08-07T08:44:58Z</time>
      </trkpt>
      <trkpt lat="47.70684" lon="6.01885">
        <ele>240.95</ele>
        <time>2022-08-07T08:45:01Z</time>
      </trkpt>
      <trkpt lat="47.70684" lon="6.01915">
        <ele>240.73</ele>
        <time>2022-08-07T08:45:05Z</time>
      </trkpt>
      <trkpt lat="47.70672" lon="6.01888">
        <ele>243.29</ele>
        <time>2022-08-07T08:45:16Z</time>
      </trkpt>
      <trkpt lat="47.70652" lon="6.01881">
        <ele>243.67</ele>
        <time>2022-08-07T08:45:21Z</time>
      </trkpt>
      <trkpt lat="47.70634" lon="6.0187">
        <ele>245.65</ele>
        <time>2022-08-07T08:45:28Z</time>
      </trkpt>
      <trkpt lat="47.70618" lon="6.01855">
        <ele>247.73</ele>
        <time>2022-08-07T08:45:33Z</time>
      </trkpt>
      <trkpt lat="47.70599" lon="6.0184">
        <ele>248.89</ele>
        <time>2022-08-07T08:45:39Z</time>
      </trkpt>
      <trkpt lat="47.70582" lon="6.01826">
        <ele>250.36</ele>
        <time>2022-08-07T08:45:45Z</time>
      </trkpt>
      <trkpt lat="47.70572" lon="6.01801">
        <ele>251.78</ele>
        <time>2022-08-07T08:45:52Z</time>
      </trkpt>
      <trkpt lat="47.70567" lon="6.01775">
        <ele>252.24</ele>
        <time>2022-08-07T08:45:59Z</time>
      </trkpt>
      <trkpt lat="47.70556" lon="6.01751">
        <ele>252.53</ele>
        <time>2022-08-07T08:46:06Z</time>
      </trkpt>
      <trkpt lat="47.70549" lon="6.01723">
        <ele>252.1</ele>
        <time>2022-08-07T08:46:13Z</time>
      </trkpt>
      <trkpt lat="47.70541" lon="6.01696">
        <ele>252.28</ele>
        <time>2022-08-07T08:46:20Z</time>
      </trkpt>
      <trkpt lat="47.70529" lon="6.0167">
        <ele>250.82</ele>
        <time>2022-08-07T08:46:26Z</time>
      </trkpt>
      <trkpt lat="47.70524" lon="6.01643">
        <ele>251.75</ele>
        <time>2022-08-07T08:46:31Z</time>
      </trkpt>
      <trkpt lat="47.70517" lon="6.01614">
        <ele>252.72</ele>
        <time>2022-08-07T08:46:37Z</time>
      </trkpt>
      <trkpt lat="47.7051" lon="6.01588">
        <ele>253.54</ele>
        <time>2022-08-07T08:46:45Z</time>
      </trkpt>
      <trkpt lat="47.70501" lon="6.01562">
        <ele>253.79</ele>
        <time>2022-08-07T08:46:53Z</time>
      </trkpt>
      <trkpt lat="47.7049" lon="6.0154">
        <ele>253.95</ele>
        <time>2022-08-07T08:47:01Z</time>
      </trkpt>
      <trkpt lat="47.70475" lon="6.0152">
        <ele>252.31</ele>
        <time>2022-08-07T08:47:07Z</time>
      </trkpt>
      <trkpt lat="47.70459" lon="6.01506">
        <ele>251.52</ele>
        <time>2022-08-07T08:47:12Z</time>
      </trkpt>
      <trkpt lat="47.70441" lon="6.01494">
        <ele>251.79</ele>
        <time>2022-08-07T08:47:17Z</time>
      </trkpt>
      <trkpt lat="47.7042" lon="6.01483">
        <ele>251.91</ele>
        <time>2022-08-07T08:47:22Z</time>
      </trkpt>
      <trkpt lat="47.70402" lon="6.01476">
        <ele>252.01</ele>
        <time>2022-08-07T08:47:27Z</time>
      </trkpt>
      <trkpt lat="47.70383" lon="6.0147">
        <ele>253.25</ele>
        <time>2022-08-07T08:47:35Z</time>
      </trkpt>
      <trkpt lat="47.70364" lon="6.01459">
        <ele>253.84</ele>
        <time>2022-08-07T08:47:42Z</time>
      </trkpt>
      <trkpt lat="47.70344" lon="6.0145">
        <ele>255.67</ele>
        <time>2022-08-07T08:47:50Z</time>
      </trkpt>
      <trkpt lat="47.70327" lon="6.01439">
        <ele>257.23</ele>
        <time>2022-08-07T08:47:56Z</time>
      </trkpt>
      <trkpt lat="47.70311" lon="6.01427">
        <ele>257.04</ele>
        <time>2022-08-07T08:48:02Z</time>
      </trkpt>
      <trkpt lat="47.70294" lon="6.01417">
        <ele>257.09</ele>
        <time>2022-08-07T08:48:09Z</time>
      </trkpt>
      <trkpt lat="47.70272" lon="6.01418">
        <ele>255.99</ele>
        <time>2022-08-07T08:48:16Z</time>
      </trkpt>
      <trkpt lat="47.7025" lon="6.01421">
        <ele>255.31</ele>
        <time>2022-08-07T08:48:21Z</time>
      </trkpt>
      <trkpt lat="47.7023" lon="6.01419">
        <ele>254.12</ele>
        <time>2022-08-07T08:48:25Z</time>
      </trkpt>
      <trkpt lat="47.70212" lon="6.01413">
        <ele>251.86</ele>
        <time>2022-08-07T08:48:30Z</time>
      </trkpt>
      <trkpt lat="47.70192" lon="6.01403">
        <ele>251.35</ele>
        <time>2022-08-07T08:48:37Z</time>
      </trkpt>
      <trkpt lat="47.70175" lon="6.01396">
        <ele>252.11</ele>
        <time>2022-08-07T08:48:43Z</time>
      </trkpt>
      <trkpt lat="47.70155" lon="6.0139">
        <ele>252.65</ele>
        <time>2022-08-07T08:48:50Z</time>
      </trkpt>
      <trkpt lat="47.70136" lon="6.01386">
        <ele>253</ele>
        <time>2022-08-07T08:48:57Z</time>
      </trkpt>
      <trkpt lat="47.70116" lon="6.01381">
        <ele>252.69</ele>
        <time>2022-08-07T08:49:04Z</time>
      </trkpt>
      <trkpt lat="47.70099" lon="6.01366">
        <ele>253.01</ele>
        <time>2022-08-07T08:49:12Z</time>
      </trkpt>
      <trkpt lat="47.70082" lon="6.01345">
        <ele>253.79</ele>
        <time>2022-08-07T08:49:20Z</time>
      </trkpt>
      <trkpt lat="47.70074" lon="6.01319">
        <ele>255.7</ele>
        <time>2022-08-07T08:49:29Z</time>
      </trkpt>
      <trkpt lat="47.70061" lon="6.01299">
        <ele>257.18</ele>
        <time>2022-08-07T08:49:36Z</time>
      </trkpt>
      <trkpt lat="47.70044" lon="6.01285">
        <ele>259.05</ele>
        <time>2022-08-07T08:49:42Z</time>
      </trkpt>
      <trkpt lat="47.70032" lon="6.01261">
        <ele>263.94</ele>
        <time>2022-08-07T08:49:57Z</time>
      </trkpt>
      <trkpt lat="47.7002" lon="6.01239">
        <ele>265.11</ele>
        <time>2022-08-07T08:50:06Z</time>
      </trkpt>
      <trkpt lat="47.70005" lon="6.01219">
        <ele>265.29</ele>
        <time>2022-08-07T08:50:15Z</time>
      </trkpt>
      <trkpt lat="47.70004" lon="6.01192">
        <ele>266.82</ele>
        <time>2022-08-07T08:50:20Z</time>
      </trkpt>
      <trkpt lat="47.69985" lon="6.01188">
        <ele>271.55</ele>
        <time>2022-08-07T08:50:29Z</time>
      </trkpt>
      <trkpt lat="47.69973" lon="6.01167">
        <ele>272.32</ele>
        <time>2022-08-07T08:50:36Z</time>
      </trkpt>
      <trkpt lat="47.69962" lon="6.01144">
        <ele>275.25</ele>
        <time>2022-08-07T08:50:46Z</time>
      </trkpt>
      <trkpt lat="47.69948" lon="6.01128">
        <ele>279.58</ele>
        <time>2022-08-07T08:50:56Z</time>
      </trkpt>
      <trkpt lat="47.69937" lon="6.01105">
        <ele>282.05</ele>
        <time>2022-08-07T08:51:07Z</time>
      </trkpt>
      <trkpt lat="47.69926" lon="6.01081">
        <ele>284.59</ele>
        <time>2022-08-07T08:51:15Z</time>
      </trkpt>
      <trkpt lat="47.69913" lon="6.01058">
        <ele>285.85</ele>
        <time>2022-08-07T08:51:24Z</time>
      </trkpt>
      <trkpt lat="47.699" lon="6.01038">
        <ele>286.26</ele>
        <time>2022-08-07T08:51:34Z</time>
      </trkpt>
      <trkpt lat="47.69886" lon="6.0102">
        <ele>287.99</ele>
        <time>2022-08-07T08:51:40Z</time>
      </trkpt>
      <trkpt lat="47.69868" lon="6.01009">
        <ele>290.29</ele>
        <time>2022-08-07T08:51:49Z</time>
      </trkpt>
      <trkpt lat="47.69851" lon="6.00999">
        <ele>294.94</ele>
        <time>2022-08-07T08:52:02Z</time>
      </trkpt>
      <trkpt lat="47.69832" lon="6.00992">
        <ele>298.43</ele>
        <time>2022-08-07T08:52:08Z</time>
      </trkpt>
      <trkpt lat="47.69814" lon="6.00979">
        <ele>300.3</ele>
        <time>2022-08-07T08:52:16Z</time>
      </trkpt>
      <trkpt lat="47.69796" lon="6.00959">
        <ele>300.71</ele>
        <time>2022-08-07T08:52:26Z</time>
      </trkpt>
      <trkpt lat="47.69779" lon="6.00942">
        <ele>298.89</ele>
        <time>2022-08-07T08:52:34Z</time>
      </trkpt>
      <trkpt lat="47.69762" lon="6.00929">
        <ele>299.73</ele>
        <time>2022-08-07T08:52:43Z</time>
      </trkpt>
      <trkpt lat="47.69757" lon="6.009">
        <ele>301.61</ele>
        <time>2022-08-07T08:52:50Z</time>
      </trkpt>
      <trkpt lat="47.69764" lon="6.00874">
        <ele>301.54</ele>
        <time>2022-08-07T08:52:56Z</time>
      </trkpt>
      <trkpt lat="47.69772" lon="6.00846">
        <ele>298.09</ele>
        <time>2022-08-07T08:53:03Z</time>
      </trkpt>
      <trkpt lat="47.69777" lon="6.00819">
        <ele>298.36</ele>
        <time>2022-08-07T08:53:10Z</time>
      </trkpt>
      <trkpt lat="47.69775" lon="6.00789">
        <ele>297.24</ele>
        <time>2022-08-07T08:53:18Z</time>
      </trkpt>
      <trkpt lat="47.69777" lon="6.00759">
        <ele>296.49</ele>
        <time>2022-08-07T08:53:27Z</time>
      </trkpt>
      <trkpt lat="47.69783" lon="6.00729">
        <ele>298.01</ele>
        <time>2022-08-07T08:53:34Z</time>
      </trkpt>
      <trkpt lat="47.69789" lon="6.00701">
        <ele>298.9</ele>
        <time>2022-08-07T08:53:42Z</time>
      </trkpt>
      <trkpt lat="47.69795" lon="6.00674">
        <ele>298.74</ele>
        <time>2022-08-07T08:53:52Z</time>
      </trkpt>
      <trkpt lat="47.69812" lon="6.00613">
        <ele>299.75</ele>
        <time>2022-08-07T08:54:19Z</time>
      </trkpt>
      <trkpt lat="47.69822" lon="6.00588">
        <ele>300.7</ele>
        <time>2022-08-07T08:54:27Z</time>
      </trkpt>
      <trkpt lat="47.69834" lon="6.00565">
        <ele>300.04</ele>
        <time>2022-08-07T08:54:40Z</time>
      </trkpt>
      <trkpt lat="47.69844" lon="6.0054">
        <ele>300.48</ele>
        <time>2022-08-07T08:54:50Z</time>
      </trkpt>
      <trkpt lat="47.69857" lon="6.00519">
        <ele>302.06</ele>
        <time>2022-08-07T08:55:02Z</time>
      </trkpt>
      <trkpt lat="47.69872" lon="6.00497">
        <ele>301.65</ele>
        <time>2022-08-07T08:55:10Z</time>
      </trkpt>
      <trkpt lat="47.69882" lon="6.00472">
        <ele>301.19</ele>
        <time>2022-08-07T08:55:18Z</time>
      </trkpt>
      <trkpt lat="47.69888" lon="6.00446">
        <ele>300.56</ele>
        <time>2022-08-07T08:55:27Z</time>
      </trkpt>
      <trkpt lat="47.69901" lon="6.00425">
        <ele>300.38</ele>
        <time>2022-08-07T08:55:36Z</time>
      </trkpt>
      <trkpt lat="47.69914" lon="6.00404">
        <ele>301.24</ele>
        <time>2022-08-07T08:55:44Z</time>
      </trkpt>
      <trkpt lat="47.69922" lon="6.00377">
        <ele>303.06</ele>
        <time>2022-08-07T08:55:55Z</time>
      </trkpt>
      <trkpt lat="47.69932" lon="6.00352">
        <ele>303.53</ele>
        <time>2022-08-07T08:56:04Z</time>
      </trkpt>
      <trkpt lat="47.69945" lon="6.00331">
        <ele>303.13</ele>
        <time>2022-08-07T08:56:13Z</time>
      </trkpt>
      <trkpt lat="47.69957" lon="6.0031">
        <ele>304.31</ele>
        <time>2022-08-07T08:56:21Z</time>
      </trkpt>
      <trkpt lat="47.69971" lon="6.00289">
        <ele>305.71</ele>
        <time>2022-08-07T08:56:28Z</time>
      </trkpt>
      <trkpt lat="47.69984" lon="6.00271">
        <ele>308.23</ele>
        <time>2022-08-07T08:56:36Z</time>
      </trkpt>
      <trkpt lat="47.69997" lon="6.0025">
        <ele>306.6</ele>
        <time>2022-08-07T08:56:46Z</time>
      </trkpt>
      <trkpt lat="47.70011" lon="6.0023">
        <ele>305.84</ele>
        <time>2022-08-07T08:56:54Z</time>
      </trkpt>
      <trkpt lat="47.70018" lon="6.00203">
        <ele>305.59</ele>
        <time>2022-08-07T08:57:02Z</time>
      </trkpt>
      <trkpt lat="47.70006" lon="6.00182">
        <ele>306.71</ele>
        <time>2022-08-07T08:57:14Z</time>
      </trkpt>
      <trkpt lat="47.69993" lon="6.00163">
        <ele>307.23</ele>
        <time>2022-08-07T08:57:24Z</time>
      </trkpt>
      <trkpt lat="47.69977" lon="6.00145">
        <ele>309.17</ele>
        <time>2022-08-07T08:57:33Z</time>
      </trkpt>
      <trkpt lat="47.69961" lon="6.00123">
        <ele>311.15</ele>
        <time>2022-08-07T08:57:44Z</time>
      </trkpt>
      <trkpt lat="47.69946" lon="6.00106">
        <ele>312.58</ele>
        <time>2022-08-07T08:57:49Z</time>
      </trkpt>
      <trkpt lat="47.69928" lon="6.00081">
        <ele>313.45</ele>
        <time>2022-08-07T08:58:03Z</time>
      </trkpt>
      <trkpt lat="47.69912" lon="6.00063">
        <ele>314.59</ele>
        <time>2022-08-07T08:58:10Z</time>
      </trkpt>
      <trkpt lat="47.69899" lon="6.00043">
        <ele>318.53</ele>
        <time>2022-08-07T08:58:20Z</time>
      </trkpt>
      <trkpt lat="47.69885" lon="6.00024">
        <ele>321.57</ele>
        <time>2022-08-07T08:58:28Z</time>
      </trkpt>
      <trkpt lat="47.6987" lon="6.00006">
        <ele>321.36</ele>
        <time>2022-08-07T08:58:35Z</time>
      </trkpt>
      <trkpt lat="47.69856" lon="5.99989">
        <ele>320.16</ele>
        <time>2022-08-07T08:58:40Z</time>
      </trkpt>
      <trkpt lat="47.6984" lon="5.9997">
        <ele>319.37</ele>
        <time>2022-08-07T08:58:45Z</time>
      </trkpt>
      <trkpt lat="47.69826" lon="5.99952">
        <ele>319.07</ele>
        <time>2022-08-07T08:58:53Z</time>
      </trkpt>
      <trkpt lat="47.69812" lon="5.99933">
        <ele>318.78</ele>
        <time>2022-08-07T08:58:59Z</time>
      </trkpt>
      <trkpt lat="47.69799" lon="5.99912">
        <ele>318.13</ele>
        <time>2022-08-07T08:59:06Z</time>
      </trkpt>
      <trkpt lat="47.69784" lon="5.99894">
        <ele>318.84</ele>
        <time>2022-08-07T08:59:10Z</time>
      </trkpt>
      <trkpt lat="47.69764" lon="5.99901">
        <ele>319.76</ele>
        <time>2022-08-07T08:59:15Z</time>
      </trkpt>
      <trkpt lat="47.69747" lon="5.99913">
        <ele>320.51</ele>
        <time>2022-08-07T08:59:19Z</time>
      </trkpt>
      <trkpt lat="47.69728" lon="5.99932">
        <ele>322.84</ele>
        <time>2022-08-07T08:59:23Z</time>
      </trkpt>
      <trkpt lat="47.69714" lon="5.9995">
        <ele>324.76</ele>
        <time>2022-08-07T08:59:26Z</time>
      </trkpt>
      <trkpt lat="47.69701" lon="5.99969">
        <ele>326.29</ele>
        <time>2022-08-07T08:59:29Z</time>
      </trkpt>
      <trkpt lat="47.69684" lon="5.99987">
        <ele>326.41</ele>
        <time>2022-08-07T08:59:32Z</time>
      </trkpt>
      <trkpt lat="47.69667" lon="6.00008">
        <ele>325.98</ele>
        <time>2022-08-07T08:59:35Z</time>
      </trkpt>
      <trkpt lat="47.69651" lon="6.00029">
        <ele>325.69</ele>
        <time>2022-08-07T08:59:38Z</time>
      </trkpt>
      <trkpt lat="47.69634" lon="6.0005">
        <ele>325.48</ele>
        <time>2022-08-07T08:59:41Z</time>
      </trkpt>
      <trkpt lat="47.69618" lon="6.00071">
        <ele>325.74</ele>
        <time>2022-08-07T08:59:44Z</time>
      </trkpt>
      <trkpt lat="47.69604" lon="6.00094">
        <ele>326.42</ele>
        <time>2022-08-07T08:59:47Z</time>
      </trkpt>
      <trkpt lat="47.69592" lon="6.00117">
        <ele>327.64</ele>
        <time>2022-08-07T08:59:50Z</time>
      </trkpt>
      <trkpt lat="47.69573" lon="6.00133">
        <ele>328.11</ele>
        <time>2022-08-07T08:59:53Z</time>
      </trkpt>
      <trkpt lat="47.69556" lon="6.00148">
        <ele>327.85</ele>
        <time>2022-08-07T08:59:56Z</time>
      </trkpt>
      <trkpt lat="47.69539" lon="6.00167">
        <ele>327.84</ele>
        <time>2022-08-07T08:59:59Z</time>
      </trkpt>
      <trkpt lat="47.69526" lon="6.00192">
        <ele>328.56</ele>
        <time>2022-08-07T09:00:02Z</time>
      </trkpt>
      <trkpt lat="47.69508" lon="6.00213">
        <ele>328.96</ele>
        <time>2022-08-07T09:00:05Z</time>
      </trkpt>
      <trkpt lat="47.6949" lon="6.00232">
        <ele>328.68</ele>
        <time>2022-08-07T09:00:08Z</time>
      </trkpt>
      <trkpt lat="47.69469" lon="6.00252">
        <ele>325.5</ele>
        <time>2022-08-07T09:00:11Z</time>
      </trkpt>
      <trkpt lat="47.69453" lon="6.00275">
        <ele>322</ele>
        <time>2022-08-07T09:00:14Z</time>
      </trkpt>
      <trkpt lat="47.69439" lon="6.00298">
        <ele>319.18</ele>
        <time>2022-08-07T09:00:17Z</time>
      </trkpt>
      <trkpt lat="47.69427" lon="6.00321">
        <ele>319.02</ele>
        <time>2022-08-07T09:00:20Z</time>
      </trkpt>
      <trkpt lat="47.69412" lon="6.00341">
        <ele>318.32</ele>
        <time>2022-08-07T09:00:23Z</time>
      </trkpt>
      <trkpt lat="47.69395" lon="6.00359">
        <ele>316.33</ele>
        <time>2022-08-07T09:00:26Z</time>
      </trkpt>
      <trkpt lat="47.6938" lon="6.00385">
        <ele>315.12</ele>
        <time>2022-08-07T09:00:30Z</time>
      </trkpt>
      <trkpt lat="47.69368" lon="6.00406">
        <ele>313.61</ele>
        <time>2022-08-07T09:00:33Z</time>
      </trkpt>
      <trkpt lat="47.69357" lon="6.00428">
        <ele>313.06</ele>
        <time>2022-08-07T09:00:36Z</time>
      </trkpt>
      <trkpt lat="47.69344" lon="6.00448">
        <ele>312.54</ele>
        <time>2022-08-07T09:00:39Z</time>
      </trkpt>
      <trkpt lat="47.69333" lon="6.0047">
        <ele>312.14</ele>
        <time>2022-08-07T09:00:42Z</time>
      </trkpt>
      <trkpt lat="47.6932" lon="6.00492">
        <ele>312.01</ele>
        <time>2022-08-07T09:00:45Z</time>
      </trkpt>
      <trkpt lat="47.69305" lon="6.0051">
        <ele>312.41</ele>
        <time>2022-08-07T09:00:48Z</time>
      </trkpt>
      <trkpt lat="47.69288" lon="6.00534">
        <ele>313.22</ele>
        <time>2022-08-07T09:00:52Z</time>
      </trkpt>
      <trkpt lat="47.69277" lon="6.00558">
        <ele>313.95</ele>
        <time>2022-08-07T09:00:55Z</time>
      </trkpt>
      <trkpt lat="47.69269" lon="6.00582">
        <ele>314.63</ele>
        <time>2022-08-07T09:00:58Z</time>
      </trkpt>
      <trkpt lat="47.6926" lon="6.00609">
        <ele>313.76</ele>
        <time>2022-08-07T09:01:02Z</time>
      </trkpt>
      <trkpt lat="47.69252" lon="6.00637">
        <ele>313.15</ele>
        <time>2022-08-07T09:01:07Z</time>
      </trkpt>
      <trkpt lat="47.6924" lon="6.00662">
        <ele>315.03</ele>
        <time>2022-08-07T09:01:13Z</time>
      </trkpt>
      <trkpt lat="47.69223" lon="6.00679">
        <ele>317.95</ele>
        <time>2022-08-07T09:01:18Z</time>
      </trkpt>
      <trkpt lat="47.69213" lon="6.00707">
        <ele>319.65</ele>
        <time>2022-08-07T09:01:23Z</time>
      </trkpt>
      <trkpt lat="47.69206" lon="6.00738">
        <ele>320</ele>
        <time>2022-08-07T09:01:28Z</time>
      </trkpt>
      <trkpt lat="47.69207" lon="6.0077">
        <ele>320.08</ele>
        <time>2022-08-07T09:01:32Z</time>
      </trkpt>
      <trkpt lat="47.69203" lon="6.00799">
        <ele>318.5</ele>
        <time>2022-08-07T09:01:36Z</time>
      </trkpt>
      <trkpt lat="47.69197" lon="6.0083">
        <ele>317.91</ele>
        <time>2022-08-07T09:01:40Z</time>
      </trkpt>
      <trkpt lat="47.6919" lon="6.00861">
        <ele>317.29</ele>
        <time>2022-08-07T09:01:44Z</time>
      </trkpt>
      <trkpt lat="47.6918" lon="6.00892">
        <ele>316.68</ele>
        <time>2022-08-07T09:01:48Z</time>
      </trkpt>
      <trkpt lat="47.69175" lon="6.00924">
        <ele>316.36</ele>
        <time>2022-08-07T09:01:51Z</time>
      </trkpt>
      <trkpt lat="47.69173" lon="6.00959">
        <ele>315.8</ele>
        <time>2022-08-07T09:01:54Z</time>
      </trkpt>
      <trkpt lat="47.69169" lon="6.00996">
        <ele>313.97</ele>
        <time>2022-08-07T09:01:57Z</time>
      </trkpt>
      <trkpt lat="47.69164" lon="6.01031">
        <ele>311.7</ele>
        <time>2022-08-07T09:02:00Z</time>
      </trkpt>
      <trkpt lat="47.69157" lon="6.01055">
        <ele>309.49</ele>
        <time>2022-08-07T09:02:02Z</time>
      </trkpt>
      <trkpt lat="47.69152" lon="6.01082">
        <ele>306.89</ele>
        <time>2022-08-07T09:02:04Z</time>
      </trkpt>
      <trkpt lat="47.69148" lon="6.01108">
        <ele>304.76</ele>
        <time>2022-08-07T09:02:06Z</time>
      </trkpt>
      <trkpt lat="47.69142" lon="6.01147">
        <ele>301.91</ele>
        <time>2022-08-07T09:02:09Z</time>
      </trkpt>
      <trkpt lat="47.69139" lon="6.01175">
        <ele>298.54</ele>
        <time>2022-08-07T09:02:11Z</time>
      </trkpt>
      <trkpt lat="47.69132" lon="6.01212">
        <ele>294.01</ele>
        <time>2022-08-07T09:02:14Z</time>
      </trkpt>
      <trkpt lat="47.69123" lon="6.01244">
        <ele>290.6</ele>
        <time>2022-08-07T09:02:17Z</time>
      </trkpt>
      <trkpt lat="47.69114" lon="6.01272">
        <ele>288.41</ele>
        <time>2022-08-07T09:02:20Z</time>
      </trkpt>
      <trkpt lat="47.69106" lon="6.01298">
        <ele>287.02</ele>
        <time>2022-08-07T09:02:23Z</time>
      </trkpt>
      <trkpt lat="47.69098" lon="6.01329">
        <ele>285.54</ele>
        <time>2022-08-07T09:02:27Z</time>
      </trkpt>
      <trkpt lat="47.69087" lon="6.01358">
        <ele>284.33</ele>
        <time>2022-08-07T09:02:31Z</time>
      </trkpt>
      <trkpt lat="47.69078" lon="6.01384">
        <ele>283.98</ele>
        <time>2022-08-07T09:02:35Z</time>
      </trkpt>
      <trkpt lat="47.69072" lon="6.01411">
        <ele>281.39</ele>
        <time>2022-08-07T09:02:49Z</time>
      </trkpt>
      <trkpt lat="47.69071" lon="6.01441">
        <ele>278.53</ele>
        <time>2022-08-07T09:02:53Z</time>
      </trkpt>
      <trkpt lat="47.69072" lon="6.01474">
        <ele>277.47</ele>
        <time>2022-08-07T09:02:57Z</time>
      </trkpt>
      <trkpt lat="47.69074" lon="6.01509">
        <ele>277.86</ele>
        <time>2022-08-07T09:03:01Z</time>
      </trkpt>
      <trkpt lat="47.69075" lon="6.01536">
        <ele>278.28</ele>
        <time>2022-08-07T09:03:04Z</time>
      </trkpt>
      <trkpt lat="47.69075" lon="6.01571">
        <ele>278.48</ele>
        <time>2022-08-07T09:03:08Z</time>
      </trkpt>
      <trkpt lat="47.69074" lon="6.01605">
        <ele>278.97</ele>
        <time>2022-08-07T09:03:12Z</time>
      </trkpt>
      <trkpt lat="47.69076" lon="6.01632">
        <ele>278.82</ele>
        <time>2022-08-07T09:03:15Z</time>
      </trkpt>
      <trkpt lat="47.69075" lon="6.01661">
        <ele>277.74</ele>
        <time>2022-08-07T09:03:19Z</time>
      </trkpt>
      <trkpt lat="47.69075" lon="6.01695">
        <ele>276.39</ele>
        <time>2022-08-07T09:03:23Z</time>
      </trkpt>
      <trkpt lat="47.69078" lon="6.01722">
        <ele>275.54</ele>
        <time>2022-08-07T09:03:26Z</time>
      </trkpt>
      <trkpt lat="47.6908" lon="6.01758">
        <ele>275.05</ele>
        <time>2022-08-07T09:03:30Z</time>
      </trkpt>
      <trkpt lat="47.6908" lon="6.01785">
        <ele>274.43</ele>
        <time>2022-08-07T09:03:33Z</time>
      </trkpt>
      <trkpt lat="47.69081" lon="6.01813">
        <ele>274</ele>
        <time>2022-08-07T09:03:36Z</time>
      </trkpt>
      <trkpt lat="47.69081" lon="6.01843">
        <ele>273.91</ele>
        <time>2022-08-07T09:03:39Z</time>
      </trkpt>
      <trkpt lat="47.69082" lon="6.01872">
        <ele>273.68</ele>
        <time>2022-08-07T09:03:42Z</time>
      </trkpt>
      <trkpt lat="47.69083" lon="6.01903">
        <ele>272.23</ele>
        <time>2022-08-07T09:03:45Z</time>
      </trkpt>
      <trkpt lat="47.69081" lon="6.01937">
        <ele>270.39</ele>
        <time>2022-08-07T09:03:48Z</time>
      </trkpt>
      <trkpt lat="47.69081" lon="6.01973">
        <ele>268.13</ele>
        <time>2022-08-07T09:03:51Z</time>
      </trkpt>
      <trkpt lat="47.69082" lon="6.02008">
        <ele>265.67</ele>
        <time>2022-08-07T09:03:54Z</time>
      </trkpt>
      <trkpt lat="47.69083" lon="6.02041">
        <ele>263.62</ele>
        <time>2022-08-07T09:03:57Z</time>
      </trkpt>
      <trkpt lat="47.69084" lon="6.02072">
        <ele>262.66</ele>
        <time>2022-08-07T09:04:00Z</time>
      </trkpt>
      <trkpt lat="47.69085" lon="6.02102">
        <ele>261.49</ele>
        <time>2022-08-07T09:04:03Z</time>
      </trkpt>
      <trkpt lat="47.69086" lon="6.02132">
        <ele>259.97</ele>
        <time>2022-08-07T09:04:06Z</time>
      </trkpt>
      <trkpt lat="47.69088" lon="6.02163">
        <ele>258.43</ele>
        <time>2022-08-07T09:04:09Z</time>
      </trkpt>
      <trkpt lat="47.69089" lon="6.02195">
        <ele>257.02</ele>
        <time>2022-08-07T09:04:12Z</time>
      </trkpt>
      <trkpt lat="47.6909" lon="6.02229">
        <ele>255.65</ele>
        <time>2022-08-07T09:04:15Z</time>
      </trkpt>
      <trkpt lat="47.6909" lon="6.02257">
        <ele>254.48</ele>
        <time>2022-08-07T09:04:18Z</time>
      </trkpt>
      <trkpt lat="47.69091" lon="6.02291">
        <ele>254.07</ele>
        <time>2022-08-07T09:04:22Z</time>
      </trkpt>
      <trkpt lat="47.69091" lon="6.02322">
        <ele>253.7</ele>
        <time>2022-08-07T09:04:26Z</time>
      </trkpt>
      <trkpt lat="47.69092" lon="6.02353">
        <ele>253.79</ele>
        <time>2022-08-07T09:04:30Z</time>
      </trkpt>
      <trkpt lat="47.69092" lon="6.02385">
        <ele>253.08</ele>
        <time>2022-08-07T09:04:34Z</time>
      </trkpt>
      <trkpt lat="47.69092" lon="6.02421">
        <ele>252.73</ele>
        <time>2022-08-07T09:04:38Z</time>
      </trkpt>
      <trkpt lat="47.69093" lon="6.02449">
        <ele>251.35</ele>
        <time>2022-08-07T09:04:41Z</time>
      </trkpt>
      <trkpt lat="47.69092" lon="6.02485">
        <ele>249.72</ele>
        <time>2022-08-07T09:04:45Z</time>
      </trkpt>
      <trkpt lat="47.69086" lon="6.02511">
        <ele>249.1</ele>
        <time>2022-08-07T09:04:48Z</time>
      </trkpt>
      <trkpt lat="47.69078" lon="6.02544">
        <ele>248.12</ele>
        <time>2022-08-07T09:04:52Z</time>
      </trkpt>
      <trkpt lat="47.69082" lon="6.02571">
        <ele>247.33</ele>
        <time>2022-08-07T09:04:55Z</time>
      </trkpt>
      <trkpt lat="47.69095" lon="6.02601">
        <ele>246.92</ele>
        <time>2022-08-07T09:04:59Z</time>
      </trkpt>
      <trkpt lat="47.69098" lon="6.02628">
        <ele>246.69</ele>
        <time>2022-08-07T09:05:02Z</time>
      </trkpt>
      <trkpt lat="47.691" lon="6.02658">
        <ele>245.72</ele>
        <time>2022-08-07T09:05:05Z</time>
      </trkpt>
      <trkpt lat="47.69101" lon="6.02688">
        <ele>244.8</ele>
        <time>2022-08-07T09:05:08Z</time>
      </trkpt>
      <trkpt lat="47.69103" lon="6.02718">
        <ele>243.77</ele>
        <time>2022-08-07T09:05:11Z</time>
      </trkpt>
      <trkpt lat="47.69105" lon="6.02748">
        <ele>243.12</ele>
        <time>2022-08-07T09:05:14Z</time>
      </trkpt>
      <trkpt lat="47.69107" lon="6.0278">
        <ele>242.41</ele>
        <time>2022-08-07T09:05:17Z</time>
      </trkpt>
      <trkpt lat="47.69107" lon="6.02815">
        <ele>241.67</ele>
        <time>2022-08-07T09:05:20Z</time>
      </trkpt>
      <trkpt lat="47.69109" lon="6.0285">
        <ele>240.62</ele>
        <time>2022-08-07T09:05:23Z</time>
      </trkpt>
      <trkpt lat="47.6911" lon="6.02883">
        <ele>240.02</ele>
        <time>2022-08-07T09:05:26Z</time>
      </trkpt>
      <trkpt lat="47.69112" lon="6.02913">
        <ele>239.66</ele>
        <time>2022-08-07T09:05:29Z</time>
      </trkpt>
      <trkpt lat="47.69114" lon="6.02942">
        <ele>239.35</ele>
        <time>2022-08-07T09:05:32Z</time>
      </trkpt>
      <trkpt lat="47.69116" lon="6.02969">
        <ele>239.44</ele>
        <time>2022-08-07T09:05:35Z</time>
      </trkpt>
      <trkpt lat="47.69118" lon="6.02998">
        <ele>239.86</ele>
        <time>2022-08-07T09:05:39Z</time>
      </trkpt>
      <trkpt lat="47.69116" lon="6.03029">
        <ele>240.68</ele>
        <time>2022-08-07T09:05:45Z</time>
      </trkpt>
      <trkpt lat="47.69118" lon="6.03058">
        <ele>241.79</ele>
        <time>2022-08-07T09:05:51Z</time>
      </trkpt>
      <trkpt lat="47.69123" lon="6.03086">
        <ele>242.84</ele>
        <time>2022-08-07T09:05:57Z</time>
      </trkpt>
      <trkpt lat="47.69133" lon="6.03113">
        <ele>248.79</ele>
        <time>2022-08-07T09:06:53Z</time>
      </trkpt>
      <trkpt lat="47.69137" lon="6.03142">
        <ele>248.6</ele>
        <time>2022-08-07T09:06:57Z</time>
      </trkpt>
      <trkpt lat="47.69143" lon="6.03177">
        <ele>246.91</ele>
        <time>2022-08-07T09:07:01Z</time>
      </trkpt>
      <trkpt lat="47.69148" lon="6.03208">
        <ele>245.63</ele>
        <time>2022-08-07T09:07:04Z</time>
      </trkpt>
      <trkpt lat="47.69152" lon="6.03246">
        <ele>244.46</ele>
        <time>2022-08-07T09:07:07Z</time>
      </trkpt>
      <trkpt lat="47.69153" lon="6.03273">
        <ele>242.73</ele>
        <time>2022-08-07T09:07:09Z</time>
      </trkpt>
      <trkpt lat="47.69154" lon="6.03303">
        <ele>240.45</ele>
        <time>2022-08-07T09:07:11Z</time>
      </trkpt>
      <trkpt lat="47.69155" lon="6.03333">
        <ele>239.1</ele>
        <time>2022-08-07T09:07:13Z</time>
      </trkpt>
      <trkpt lat="47.69156" lon="6.03366">
        <ele>238.89</ele>
        <time>2022-08-07T09:07:15Z</time>
      </trkpt>
      <trkpt lat="47.69157" lon="6.03399">
        <ele>238.79</ele>
        <time>2022-08-07T09:07:17Z</time>
      </trkpt>
      <trkpt lat="47.69158" lon="6.03431">
        <ele>238.73</ele>
        <time>2022-08-07T09:07:19Z</time>
      </trkpt>
      <trkpt lat="47.69159" lon="6.03464">
        <ele>238.57</ele>
        <time>2022-08-07T09:07:21Z</time>
      </trkpt>
      <trkpt lat="47.6916" lon="6.03498">
        <ele>237.91</ele>
        <time>2022-08-07T09:07:23Z</time>
      </trkpt>
      <trkpt lat="47.69159" lon="6.03532">
        <ele>236.46</ele>
        <time>2022-08-07T09:07:25Z</time>
      </trkpt>
      <trkpt lat="47.69156" lon="6.03566">
        <ele>234.85</ele>
        <time>2022-08-07T09:07:27Z</time>
      </trkpt>
      <trkpt lat="47.6915" lon="6.03597">
        <ele>233.78</ele>
        <time>2022-08-07T09:07:29Z</time>
      </trkpt>
      <trkpt lat="47.69143" lon="6.03628">
        <ele>233.48</ele>
        <time>2022-08-07T09:07:31Z</time>
      </trkpt>
      <trkpt lat="47.69137" lon="6.03658">
        <ele>233.23</ele>
        <time>2022-08-07T09:07:33Z</time>
      </trkpt>
      <trkpt lat="47.69131" lon="6.03685">
        <ele>232.55</ele>
        <time>2022-08-07T09:07:35Z</time>
      </trkpt>
      <trkpt lat="47.69123" lon="6.03716">
        <ele>231.04</ele>
        <time>2022-08-07T09:07:38Z</time>
      </trkpt>
      <trkpt lat="47.69117" lon="6.03741">
        <ele>227.97</ele>
        <time>2022-08-07T09:07:43Z</time>
      </trkpt>
      <trkpt lat="47.69112" lon="6.0377">
        <ele>228.95</ele>
        <time>2022-08-07T09:08:09Z</time>
      </trkpt>
      <trkpt lat="47.69102" lon="6.03795">
        <ele>229.27</ele>
        <time>2022-08-07T09:08:15Z</time>
      </trkpt>
      <trkpt lat="47.6909" lon="6.03821">
        <ele>225.82</ele>
        <time>2022-08-07T09:08:20Z</time>
      </trkpt>
      <trkpt lat="47.69081" lon="6.03845">
        <ele>224.52</ele>
        <time>2022-08-07T09:08:24Z</time>
      </trkpt>
      <trkpt lat="47.6907" lon="6.03868">
        <ele>223.12</ele>
        <time>2022-08-07T09:08:28Z</time>
      </trkpt>
      <trkpt lat="47.69059" lon="6.03896">
        <ele>222.15</ele>
        <time>2022-08-07T09:08:33Z</time>
      </trkpt>
      <trkpt lat="47.69047" lon="6.03925">
        <ele>220.35</ele>
        <time>2022-08-07T09:08:38Z</time>
      </trkpt>
      <trkpt lat="47.69037" lon="6.03951">
        <ele>219.01</ele>
        <time>2022-08-07T09:08:42Z</time>
      </trkpt>
      <trkpt lat="47.69026" lon="6.03979">
        <ele>218.08</ele>
        <time>2022-08-07T09:08:46Z</time>
      </trkpt>
      <trkpt lat="47.69014" lon="6.04007">
        <ele>217.47</ele>
        <time>2022-08-07T09:08:50Z</time>
      </trkpt>
      <trkpt lat="47.69003" lon="6.04037">
        <ele>217.38</ele>
        <time>2022-08-07T09:08:54Z</time>
      </trkpt>
      <trkpt lat="47.68991" lon="6.04066">
        <ele>217.8</ele>
        <time>2022-08-07T09:08:58Z</time>
      </trkpt>
      <trkpt lat="47.6898" lon="6.04095">
        <ele>218.9</ele>
        <time>2022-08-07T09:09:02Z</time>
      </trkpt>
      <trkpt lat="47.6897" lon="6.04122">
        <ele>218.69</ele>
        <time>2022-08-07T09:09:06Z</time>
      </trkpt>
      <trkpt lat="47.6896" lon="6.04147">
        <ele>218.82</ele>
        <time>2022-08-07T09:09:10Z</time>
      </trkpt>
      <trkpt lat="47.68949" lon="6.04174">
        <ele>219.57</ele>
        <time>2022-08-07T09:09:14Z</time>
      </trkpt>
      <trkpt lat="47.68936" lon="6.042">
        <ele>220.14</ele>
        <time>2022-08-07T09:09:18Z</time>
      </trkpt>
      <trkpt lat="47.68924" lon="6.04226">
        <ele>220.58</ele>
        <time>2022-08-07T09:09:22Z</time>
      </trkpt>
      <trkpt lat="47.68915" lon="6.04249">
        <ele>221.02</ele>
        <time>2022-08-07T09:09:27Z</time>
      </trkpt>
      <trkpt lat="47.68906" lon="6.04279">
        <ele>223.1</ele>
        <time>2022-08-07T09:09:36Z</time>
      </trkpt>
      <trkpt lat="47.68895" lon="6.04302">
        <ele>225.21</ele>
        <time>2022-08-07T09:09:41Z</time>
      </trkpt>
      <trkpt lat="47.68885" lon="6.04328">
        <ele>225.73</ele>
        <time>2022-08-07T09:09:47Z</time>
      </trkpt>
      <trkpt lat="47.68879" lon="6.04354">
        <ele>228.89</ele>
        <time>2022-08-07T09:09:57Z</time>
      </trkpt>
      <trkpt lat="47.68863" lon="6.04332">
        <ele>228.29</ele>
        <time>2022-08-07T09:10:04Z</time>
      </trkpt>
      <trkpt lat="47.68848" lon="6.04312">
        <ele>229.36</ele>
        <time>2022-08-07T09:10:09Z</time>
      </trkpt>
      <trkpt lat="47.6883" lon="6.04299">
        <ele>228.85</ele>
        <time>2022-08-07T09:10:13Z</time>
      </trkpt>
      <trkpt lat="47.68811" lon="6.04294">
        <ele>228.21</ele>
        <time>2022-08-07T09:10:16Z</time>
      </trkpt>
      <trkpt lat="47.68792" lon="6.0429">
        <ele>227.48</ele>
        <time>2022-08-07T09:10:19Z</time>
      </trkpt>
      <trkpt lat="47.68774" lon="6.04283">
        <ele>227.21</ele>
        <time>2022-08-07T09:10:22Z</time>
      </trkpt>
      <trkpt lat="47.68754" lon="6.04274">
        <ele>227.83</ele>
        <time>2022-08-07T09:10:25Z</time>
      </trkpt>
      <trkpt lat="47.68734" lon="6.04266">
        <ele>228.24</ele>
        <time>2022-08-07T09:10:28Z</time>
      </trkpt>
      <trkpt lat="47.68715" lon="6.04258">
        <ele>229.15</ele>
        <time>2022-08-07T09:10:31Z</time>
      </trkpt>
      <trkpt lat="47.68697" lon="6.04251">
        <ele>229.38</ele>
        <time>2022-08-07T09:10:34Z</time>
      </trkpt>
      <trkpt lat="47.68672" lon="6.04242">
        <ele>229.45</ele>
        <time>2022-08-07T09:10:38Z</time>
      </trkpt>
      <trkpt lat="47.68651" lon="6.04234">
        <ele>228.35</ele>
        <time>2022-08-07T09:10:41Z</time>
      </trkpt>
      <trkpt lat="47.68629" lon="6.0423">
        <ele>226.99</ele>
        <time>2022-08-07T09:10:44Z</time>
      </trkpt>
      <trkpt lat="47.68608" lon="6.04229">
        <ele>226.26</ele>
        <time>2022-08-07T09:10:47Z</time>
      </trkpt>
      <trkpt lat="47.68589" lon="6.04231">
        <ele>226.03</ele>
        <time>2022-08-07T09:10:50Z</time>
      </trkpt>
      <trkpt lat="47.6857" lon="6.04236">
        <ele>225.79</ele>
        <time>2022-08-07T09:10:54Z</time>
      </trkpt>
      <trkpt lat="47.68548" lon="6.04241">
        <ele>225.73</ele>
        <time>2022-08-07T09:11:00Z</time>
      </trkpt>
      <trkpt lat="47.68524" lon="6.04242">
        <ele>223.83</ele>
        <time>2022-08-07T09:11:04Z</time>
      </trkpt>
      <trkpt lat="47.68503" lon="6.04245">
        <ele>223.44</ele>
        <time>2022-08-07T09:11:08Z</time>
      </trkpt>
      <trkpt lat="47.68481" lon="6.04249">
        <ele>224.48</ele>
        <time>2022-08-07T09:11:12Z</time>
      </trkpt>
      <trkpt lat="47.68459" lon="6.04251">
        <ele>225.24</ele>
        <time>2022-08-07T09:11:16Z</time>
      </trkpt>
      <trkpt lat="47.68437" lon="6.04253">
        <ele>225.07</ele>
        <time>2022-08-07T09:11:20Z</time>
      </trkpt>
      <trkpt lat="47.68417" lon="6.04254">
        <ele>224.6</ele>
        <time>2022-08-07T09:11:24Z</time>
      </trkpt>
      <trkpt lat="47.68399" lon="6.04261">
        <ele>224.53</ele>
        <time>2022-08-07T09:11:31Z</time>
      </trkpt>
      <trkpt lat="47.68395" lon="6.04289">
        <ele>222.5</ele>
        <time>2022-08-07T09:11:36Z</time>
      </trkpt>
      <trkpt lat="47.68394" lon="6.0432">
        <ele>219.74</ele>
        <time>2022-08-07T09:11:41Z</time>
      </trkpt>
      <trkpt lat="47.68395" lon="6.04348">
        <ele>218.85</ele>
        <time>2022-08-07T09:11:46Z</time>
      </trkpt>
      <trkpt lat="47.68394" lon="6.04376">
        <ele>217.43</ele>
        <time>2022-08-07T09:11:51Z</time>
      </trkpt>
      <trkpt lat="47.68394" lon="6.04405">
        <ele>217.34</ele>
        <time>2022-08-07T09:11:56Z</time>
      </trkpt>
      <trkpt lat="47.68397" lon="6.04431">
        <ele>217.65</ele>
        <time>2022-08-07T09:12:04Z</time>
      </trkpt>
      <trkpt lat="47.68415" lon="6.04437">
        <ele>216.88</ele>
        <time>2022-08-07T09:12:12Z</time>
      </trkpt>
      <trkpt lat="47.68436" lon="6.04438">
        <ele>217.26</ele>
        <time>2022-08-07T09:12:18Z</time>
      </trkpt>
      <trkpt lat="47.68455" lon="6.04437">
        <ele>217.91</ele>
        <time>2022-08-07T09:12:23Z</time>
      </trkpt>
      <trkpt lat="47.68474" lon="6.04435">
        <ele>218.51</ele>
        <time>2022-08-07T09:12:29Z</time>
      </trkpt>
      <trkpt lat="47.68492" lon="6.04438">
        <ele>218.67</ele>
        <time>2022-08-07T09:12:35Z</time>
      </trkpt>
      <trkpt lat="47.6851" lon="6.04447">
        <ele>218.82</ele>
        <time>2022-08-07T09:12:41Z</time>
      </trkpt>
      <trkpt lat="47.68529" lon="6.04459">
        <ele>219.56</ele>
        <time>2022-08-07T09:12:48Z</time>
      </trkpt>
      <trkpt lat="47.68548" lon="6.04472">
        <ele>221.6</ele>
        <time>2022-08-07T09:12:56Z</time>
      </trkpt>
      <trkpt lat="47.68565" lon="6.04485">
        <ele>222.91</ele>
        <time>2022-08-07T09:13:03Z</time>
      </trkpt>
      <trkpt lat="47.68582" lon="6.04498">
        <ele>224.66</ele>
        <time>2022-08-07T09:13:11Z</time>
      </trkpt>
      <trkpt lat="47.686" lon="6.04511">
        <ele>226.05</ele>
        <time>2022-08-07T09:13:20Z</time>
      </trkpt>
      <trkpt lat="47.68618" lon="6.04523">
        <ele>227.11</ele>
        <time>2022-08-07T09:13:29Z</time>
      </trkpt>
      <trkpt lat="47.6863" lon="6.04544">
        <ele>231.55</ele>
        <time>2022-08-07T09:13:39Z</time>
      </trkpt>
      <trkpt lat="47.68619" lon="6.04565">
        <ele>233.97</ele>
        <time>2022-08-07T09:13:52Z</time>
      </trkpt>
    </trkseg>
  </trk>
</gpx>